<?xml version="1.0" encoding="utf-8"?>
<gpx xmlns:xsi="http://www.w3.org/2001/XMLSchema-instance" xmlns:xsd="http://www.w3.org/2001/XMLSchema" version="1.1" creator="Shapelink.com" xmlns="http://www.topografix.com/GPX/1/1" xmlns:gpxtpx="http://www.garmin.com/xmlschemas/TrackPointExtension/v1">
  <metadata>
    <name>Gåing 7.00 km, 2012-03-14</name>
    <desc></desc>
    <author><name>Mikael Blom</name></author> 
    <time>2012-03-14T13:32:52Z</time>
  </metadata>
  <trk>
    <name>Gåing 7.00 km, 2012-03-14</name>
    <trkseg>
      <trkpt lat="59.9839514" lon="17.7381406">
        <ele>49.6453</ele>
        <time>2012-03-14T13:32:52Z</time>
      </trkpt>
      <trkpt lat="59.9839691" lon="17.7380329">
        <ele>51.0872</ele>
        <time>2012-03-14T13:32:57Z</time>
      </trkpt>
      <trkpt lat="59.9839566" lon="17.73804">
        <ele>42.916</ele>
        <time>2012-03-14T13:33:01Z</time>
      </trkpt>
      <trkpt lat="59.983982" lon="17.7380993">
        <ele>26.5736</ele>
        <time>2012-03-14T13:33:06Z</time>
      </trkpt>
      <trkpt lat="59.9840343" lon="17.738094">
        <ele>24.1703</ele>
        <time>2012-03-14T13:33:10Z</time>
      </trkpt>
      <trkpt lat="59.9840742" lon="17.7381365">
        <ele>22.2476</ele>
        <time>2012-03-14T13:33:14Z</time>
      </trkpt>
      <trkpt lat="59.9841543" lon="17.7381656">
        <ele>26.5736</ele>
        <time>2012-03-14T13:33:19Z</time>
      </trkpt>
      <trkpt lat="59.9842425" lon="17.7382142">
        <ele>27.0543</ele>
        <time>2012-03-14T13:33:25Z</time>
      </trkpt>
      <trkpt lat="59.9843575" lon="17.7381734">
        <ele>30.8995</ele>
        <time>2012-03-14T13:33:30Z</time>
      </trkpt>
      <trkpt lat="59.9844441" lon="17.7381515">
        <ele>29.9381</ele>
        <time>2012-03-14T13:33:35Z</time>
      </trkpt>
      <trkpt lat="59.9845102" lon="17.7381618">
        <ele>29.4575</ele>
        <time>2012-03-14T13:33:40Z</time>
      </trkpt>
      <trkpt lat="59.984626" lon="17.7381736">
        <ele>35.2255</ele>
        <time>2012-03-14T13:33:46Z</time>
      </trkpt>
      <trkpt lat="59.984644" lon="17.7381754">
        <ele>35.7061</ele>
        <time>2012-03-14T13:33:47Z</time>
      </trkpt>
      <trkpt lat="59.9847453" lon="17.7381768">
        <ele>37.6287</ele>
        <time>2012-03-14T13:33:53Z</time>
      </trkpt>
      <trkpt lat="59.9848413" lon="17.7382375">
        <ele>41.474</ele>
        <time>2012-03-14T13:33:58Z</time>
      </trkpt>
      <trkpt lat="59.9848607" lon="17.7382282">
        <ele>42.4354</ele>
        <time>2012-03-14T13:34:01Z</time>
      </trkpt>
      <trkpt lat="59.9849688" lon="17.7382057">
        <ele>41.9547</ele>
        <time>2012-03-14T13:34:07Z</time>
      </trkpt>
      <trkpt lat="59.984993" lon="17.7382047">
        <ele>39.5513</ele>
        <time>2012-03-14T13:34:11Z</time>
      </trkpt>
      <trkpt lat="59.985074" lon="17.73823">
        <ele>39.5513</ele>
        <time>2012-03-14T13:34:17Z</time>
      </trkpt>
      <trkpt lat="59.9851225" lon="17.7382746">
        <ele>38.5901</ele>
        <time>2012-03-14T13:34:21Z</time>
      </trkpt>
      <trkpt lat="59.9852661" lon="17.7382753">
        <ele>39.0707</ele>
        <time>2012-03-14T13:34:28Z</time>
      </trkpt>
      <trkpt lat="59.9852998" lon="17.7382965">
        <ele>40.0321</ele>
        <time>2012-03-14T13:34:30Z</time>
      </trkpt>
      <trkpt lat="59.9853796" lon="17.738335">
        <ele>36.6675</ele>
        <time>2012-03-14T13:34:36Z</time>
      </trkpt>
      <trkpt lat="59.9854799" lon="17.7384007">
        <ele>38.5901</ele>
        <time>2012-03-14T13:34:42Z</time>
      </trkpt>
      <trkpt lat="59.9855656" lon="17.738432">
        <ele>38.5901</ele>
        <time>2012-03-14T13:34:48Z</time>
      </trkpt>
      <trkpt lat="59.9856013" lon="17.7384473">
        <ele>38.1094</ele>
        <time>2012-03-14T13:34:51Z</time>
      </trkpt>
      <trkpt lat="59.9856977" lon="17.7384654">
        <ele>39.0707</ele>
        <time>2012-03-14T13:34:56Z</time>
      </trkpt>
      <trkpt lat="59.985708" lon="17.7384811">
        <ele>38.5901</ele>
        <time>2012-03-14T13:34:57Z</time>
      </trkpt>
      <trkpt lat="59.98575" lon="17.7385394">
        <ele>35.2255</ele>
        <time>2012-03-14T13:35:02Z</time>
      </trkpt>
      <trkpt lat="59.9858071" lon="17.7386291">
        <ele>31.8607</ele>
        <time>2012-03-14T13:35:08Z</time>
      </trkpt>
      <trkpt lat="59.9859236" lon="17.7387198">
        <ele>36.6675</ele>
        <time>2012-03-14T13:35:13Z</time>
      </trkpt>
      <trkpt lat="59.9859936" lon="17.7387488">
        <ele>36.1868</ele>
        <time>2012-03-14T13:35:17Z</time>
      </trkpt>
      <trkpt lat="59.98607" lon="17.7387957">
        <ele>39.5513</ele>
        <time>2012-03-14T13:35:20Z</time>
      </trkpt>
      <trkpt lat="59.9861479" lon="17.7388959">
        <ele>39.0707</ele>
        <time>2012-03-14T13:35:26Z</time>
      </trkpt>
      <trkpt lat="59.9862249" lon="17.7389674">
        <ele>34.7449</ele>
        <time>2012-03-14T13:35:31Z</time>
      </trkpt>
      <trkpt lat="59.9863062" lon="17.7390072">
        <ele>34.7449</ele>
        <time>2012-03-14T13:35:38Z</time>
      </trkpt>
      <trkpt lat="59.9864067" lon="17.7390605">
        <ele>36.6675</ele>
        <time>2012-03-14T13:35:44Z</time>
      </trkpt>
      <trkpt lat="59.9864121" lon="17.7390972">
        <ele>33.7834</ele>
        <time>2012-03-14T13:35:47Z</time>
      </trkpt>
      <trkpt lat="59.9865333" lon="17.7391796">
        <ele>37.1481</ele>
        <time>2012-03-14T13:35:53Z</time>
      </trkpt>
      <trkpt lat="59.986617" lon="17.7392054">
        <ele>40.5128</ele>
        <time>2012-03-14T13:35:58Z</time>
      </trkpt>
      <trkpt lat="59.9866957" lon="17.7392615">
        <ele>43.3966</ele>
        <time>2012-03-14T13:36:04Z</time>
      </trkpt>
      <trkpt lat="59.9867409" lon="17.7393091">
        <ele>42.916</ele>
        <time>2012-03-14T13:36:08Z</time>
      </trkpt>
      <trkpt lat="59.9868231" lon="17.7393718">
        <ele>42.916</ele>
        <time>2012-03-14T13:36:14Z</time>
      </trkpt>
      <trkpt lat="59.9868668" lon="17.7393937">
        <ele>45.3192</ele>
        <time>2012-03-14T13:36:16Z</time>
      </trkpt>
      <trkpt lat="59.986989" lon="17.7394792">
        <ele>46.7612</ele>
        <time>2012-03-14T13:36:24Z</time>
      </trkpt>
      <trkpt lat="59.9870296" lon="17.7394999">
        <ele>48.2034</ele>
        <time>2012-03-14T13:36:26Z</time>
      </trkpt>
      <trkpt lat="59.9871288" lon="17.7394862">
        <ele>50.126</ele>
        <time>2012-03-14T13:36:31Z</time>
      </trkpt>
      <trkpt lat="59.9872135" lon="17.7394552">
        <ele>49.1646</ele>
        <time>2012-03-14T13:36:36Z</time>
      </trkpt>
      <trkpt lat="59.9872948" lon="17.7394392">
        <ele>47.7225</ele>
        <time>2012-03-14T13:36:43Z</time>
      </trkpt>
      <trkpt lat="59.9873463" lon="17.739457">
        <ele>42.4354</ele>
        <time>2012-03-14T13:36:48Z</time>
      </trkpt>
      <trkpt lat="59.9874336" lon="17.7394325">
        <ele>43.3966</ele>
        <time>2012-03-14T13:36:53Z</time>
      </trkpt>
      <trkpt lat="59.9875219" lon="17.7394158">
        <ele>45.3192</ele>
        <time>2012-03-14T13:36:58Z</time>
      </trkpt>
      <trkpt lat="59.9875913" lon="17.7394445">
        <ele>42.916</ele>
        <time>2012-03-14T13:37:03Z</time>
      </trkpt>
      <trkpt lat="59.9876697" lon="17.7394507">
        <ele>43.8773</ele>
        <time>2012-03-14T13:37:07Z</time>
      </trkpt>
      <trkpt lat="59.987703" lon="17.7394294">
        <ele>43.8773</ele>
        <time>2012-03-14T13:37:09Z</time>
      </trkpt>
      <trkpt lat="59.9878111" lon="17.7393971">
        <ele>44.358</ele>
        <time>2012-03-14T13:37:15Z</time>
      </trkpt>
      <trkpt lat="59.9878462" lon="17.7393867">
        <ele>45.3192</ele>
        <time>2012-03-14T13:37:17Z</time>
      </trkpt>
      <trkpt lat="59.9878784" lon="17.7393772">
        <ele>44.358</ele>
        <time>2012-03-14T13:37:20Z</time>
      </trkpt>
      <trkpt lat="59.9879748" lon="17.7393762">
        <ele>41.9547</ele>
        <time>2012-03-14T13:37:26Z</time>
      </trkpt>
      <trkpt lat="59.9880347" lon="17.7393324">
        <ele>43.8773</ele>
        <time>2012-03-14T13:37:29Z</time>
      </trkpt>
      <trkpt lat="59.9881467" lon="17.7393099">
        <ele>40.5128</ele>
        <time>2012-03-14T13:37:36Z</time>
      </trkpt>
      <trkpt lat="59.9882621" lon="17.7392564">
        <ele>43.8773</ele>
        <time>2012-03-14T13:37:41Z</time>
      </trkpt>
      <trkpt lat="59.9883834" lon="17.7392061">
        <ele>44.358</ele>
        <time>2012-03-14T13:37:47Z</time>
      </trkpt>
      <trkpt lat="59.9884225" lon="17.7392054">
        <ele>39.5513</ele>
        <time>2012-03-14T13:37:51Z</time>
      </trkpt>
      <trkpt lat="59.9885146" lon="17.739176">
        <ele>39.5513</ele>
        <time>2012-03-14T13:37:56Z</time>
      </trkpt>
      <trkpt lat="59.988626" lon="17.7391337">
        <ele>42.4354</ele>
        <time>2012-03-14T13:38:02Z</time>
      </trkpt>
      <trkpt lat="59.988705" lon="17.7390829">
        <ele>44.358</ele>
        <time>2012-03-14T13:38:07Z</time>
      </trkpt>
      <trkpt lat="59.9888051" lon="17.7389693">
        <ele>46.2806</ele>
        <time>2012-03-14T13:38:13Z</time>
      </trkpt>
      <trkpt lat="59.9888844" lon="17.7389192">
        <ele>47.2418</ele>
        <time>2012-03-14T13:38:19Z</time>
      </trkpt>
      <trkpt lat="59.9889787" lon="17.7388094">
        <ele>48.684</ele>
        <time>2012-03-14T13:38:26Z</time>
      </trkpt>
      <trkpt lat="59.9890782" lon="17.7387456">
        <ele>49.6453</ele>
        <time>2012-03-14T13:38:32Z</time>
      </trkpt>
      <trkpt lat="59.9891444" lon="17.738683">
        <ele>50.6066</ele>
        <time>2012-03-14T13:38:36Z</time>
      </trkpt>
      <trkpt lat="59.9891594" lon="17.7386593">
        <ele>48.684</ele>
        <time>2012-03-14T13:38:40Z</time>
      </trkpt>
      <trkpt lat="59.9892475" lon="17.738598">
        <ele>52.0486</ele>
        <time>2012-03-14T13:38:46Z</time>
      </trkpt>
      <trkpt lat="59.989321" lon="17.7385632">
        <ele>51.5679</ele>
        <time>2012-03-14T13:38:51Z</time>
      </trkpt>
      <trkpt lat="59.9894009" lon="17.738532">
        <ele>52.0486</ele>
        <time>2012-03-14T13:38:56Z</time>
      </trkpt>
      <trkpt lat="59.9894553" lon="17.7385048">
        <ele>52.0486</ele>
        <time>2012-03-14T13:39:00Z</time>
      </trkpt>
      <trkpt lat="59.98958" lon="17.7384961">
        <ele>53.9712</ele>
        <time>2012-03-14T13:39:08Z</time>
      </trkpt>
      <trkpt lat="59.9896619" lon="17.7384732">
        <ele>52.5292</ele>
        <time>2012-03-14T13:39:14Z</time>
      </trkpt>
      <trkpt lat="59.9897242" lon="17.7384644">
        <ele>49.6453</ele>
        <time>2012-03-14T13:39:19Z</time>
      </trkpt>
      <trkpt lat="59.9897464" lon="17.7384557">
        <ele>48.684</ele>
        <time>2012-03-14T13:39:21Z</time>
      </trkpt>
      <trkpt lat="59.9898149" lon="17.7384348">
        <ele>46.2806</ele>
        <time>2012-03-14T13:39:27Z</time>
      </trkpt>
      <trkpt lat="59.9898622" lon="17.7384209">
        <ele>45.3192</ele>
        <time>2012-03-14T13:39:30Z</time>
      </trkpt>
      <trkpt lat="59.9899313" lon="17.7384025">
        <ele>47.7225</ele>
        <time>2012-03-14T13:39:33Z</time>
      </trkpt>
      <trkpt lat="59.9900385" lon="17.7383302">
        <ele>45.3192</ele>
        <time>2012-03-14T13:39:40Z</time>
      </trkpt>
      <trkpt lat="59.9901591" lon="17.7383197">
        <ele>43.8773</ele>
        <time>2012-03-14T13:39:48Z</time>
      </trkpt>
      <trkpt lat="59.9902324" lon="17.7382793">
        <ele>44.358</ele>
        <time>2012-03-14T13:39:55Z</time>
      </trkpt>
      <trkpt lat="59.9902985" lon="17.7382732">
        <ele>43.8773</ele>
        <time>2012-03-14T13:39:59Z</time>
      </trkpt>
      <trkpt lat="59.9903085" lon="17.7382639">
        <ele>43.3966</ele>
        <time>2012-03-14T13:40:00Z</time>
      </trkpt>
      <trkpt lat="59.990439" lon="17.7381981">
        <ele>44.8386</ele>
        <time>2012-03-14T13:40:07Z</time>
      </trkpt>
      <trkpt lat="59.9905363" lon="17.738195">
        <ele>40.5128</ele>
        <time>2012-03-14T13:40:13Z</time>
      </trkpt>
      <trkpt lat="59.990616" lon="17.7381551">
        <ele>39.0707</ele>
        <time>2012-03-14T13:40:18Z</time>
      </trkpt>
      <trkpt lat="59.9906935" lon="17.7380702">
        <ele>38.1094</ele>
        <time>2012-03-14T13:40:24Z</time>
      </trkpt>
      <trkpt lat="59.9907343" lon="17.7380272">
        <ele>39.5513</ele>
        <time>2012-03-14T13:40:27Z</time>
      </trkpt>
      <trkpt lat="59.9908368" lon="17.73795">
        <ele>41.474</ele>
        <time>2012-03-14T13:40:32Z</time>
      </trkpt>
      <trkpt lat="59.9909138" lon="17.7379294">
        <ele>41.9547</ele>
        <time>2012-03-14T13:40:38Z</time>
      </trkpt>
      <trkpt lat="59.9909937" lon="17.7378567">
        <ele>44.358</ele>
        <time>2012-03-14T13:40:44Z</time>
      </trkpt>
      <trkpt lat="59.9910355" lon="17.737808">
        <ele>45.3192</ele>
        <time>2012-03-14T13:40:49Z</time>
      </trkpt>
      <trkpt lat="59.9910931" lon="17.7377522">
        <ele>46.7612</ele>
        <time>2012-03-14T13:40:53Z</time>
      </trkpt>
      <trkpt lat="59.9911771" lon="17.7377272">
        <ele>47.2418</ele>
        <time>2012-03-14T13:40:58Z</time>
      </trkpt>
      <trkpt lat="59.9912823" lon="17.7377236">
        <ele>47.7225</ele>
        <time>2012-03-14T13:41:04Z</time>
      </trkpt>
      <trkpt lat="59.9914041" lon="17.7377531">
        <ele>51.5679</ele>
        <time>2012-03-14T13:41:09Z</time>
      </trkpt>
      <trkpt lat="59.9914609" lon="17.7377327">
        <ele>47.2418</ele>
        <time>2012-03-14T13:41:15Z</time>
      </trkpt>
      <trkpt lat="59.9915191" lon="17.7377294">
        <ele>43.3966</ele>
        <time>2012-03-14T13:41:21Z</time>
      </trkpt>
      <trkpt lat="59.9915337" lon="17.7377221">
        <ele>44.358</ele>
        <time>2012-03-14T13:41:22Z</time>
      </trkpt>
      <trkpt lat="59.99156" lon="17.7377644">
        <ele>44.358</ele>
        <time>2012-03-14T13:41:24Z</time>
      </trkpt>
      <trkpt lat="59.9916373" lon="17.737748">
        <ele>42.4354</ele>
        <time>2012-03-14T13:41:31Z</time>
      </trkpt>
      <trkpt lat="59.9917015" lon="17.7377255">
        <ele>40.9934</ele>
        <time>2012-03-14T13:41:36Z</time>
      </trkpt>
      <trkpt lat="59.991778" lon="17.7377159">
        <ele>38.1094</ele>
        <time>2012-03-14T13:41:41Z</time>
      </trkpt>
      <trkpt lat="59.9918936" lon="17.7377012">
        <ele>40.0321</ele>
        <time>2012-03-14T13:41:46Z</time>
      </trkpt>
      <trkpt lat="59.9920158" lon="17.7376556">
        <ele>41.9547</ele>
        <time>2012-03-14T13:41:52Z</time>
      </trkpt>
      <trkpt lat="59.9920988" lon="17.7376242">
        <ele>37.6287</ele>
        <time>2012-03-14T13:41:58Z</time>
      </trkpt>
      <trkpt lat="59.9921137" lon="17.7376221">
        <ele>37.6287</ele>
        <time>2012-03-14T13:41:59Z</time>
      </trkpt>
      <trkpt lat="59.9921407" lon="17.7377022">
        <ele>43.3966</ele>
        <time>2012-03-14T13:42:05Z</time>
      </trkpt>
      <trkpt lat="59.9920861" lon="17.7377433">
        <ele>43.3966</ele>
        <time>2012-03-14T13:42:10Z</time>
      </trkpt>
      <trkpt lat="59.9920739" lon="17.7377493">
        <ele>43.8773</ele>
        <time>2012-03-14T13:42:11Z</time>
      </trkpt>
      <trkpt lat="59.992035" lon="17.7377858">
        <ele>47.2418</ele>
        <time>2012-03-14T13:42:16Z</time>
      </trkpt>
      <trkpt lat="59.9919959" lon="17.7377955">
        <ele>46.2806</ele>
        <time>2012-03-14T13:42:18Z</time>
      </trkpt>
      <trkpt lat="59.9918961" lon="17.7378172">
        <ele>42.4354</ele>
        <time>2012-03-14T13:42:23Z</time>
      </trkpt>
      <trkpt lat="59.9917576" lon="17.7378363">
        <ele>39.5513</ele>
        <time>2012-03-14T13:42:27Z</time>
      </trkpt>
      <trkpt lat="59.9916074" lon="17.7378639">
        <ele>36.6675</ele>
        <time>2012-03-14T13:42:32Z</time>
      </trkpt>
      <trkpt lat="59.991514" lon="17.7378857">
        <ele>33.7834</ele>
        <time>2012-03-14T13:42:35Z</time>
      </trkpt>
      <trkpt lat="59.9914817" lon="17.737878">
        <ele>32.8223</ele>
        <time>2012-03-14T13:42:37Z</time>
      </trkpt>
      <trkpt lat="59.9913942" lon="17.7378718">
        <ele>35.2255</ele>
        <time>2012-03-14T13:42:43Z</time>
      </trkpt>
      <trkpt lat="59.9912915" lon="17.737904">
        <ele>32.3416</ele>
        <time>2012-03-14T13:42:48Z</time>
      </trkpt>
      <trkpt lat="59.9912393" lon="17.737904">
        <ele>32.3416</ele>
        <time>2012-03-14T13:42:53Z</time>
      </trkpt>
      <trkpt lat="59.9911849" lon="17.7378986">
        <ele>44.358</ele>
        <time>2012-03-14T13:43:00Z</time>
      </trkpt>
      <trkpt lat="59.9911352" lon="17.7378987">
        <ele>49.6453</ele>
        <time>2012-03-14T13:43:04Z</time>
      </trkpt>
      <trkpt lat="59.991028" lon="17.7379166">
        <ele>58.7777</ele>
        <time>2012-03-14T13:43:10Z</time>
      </trkpt>
      <trkpt lat="59.99101" lon="17.7379224">
        <ele>60.2197</ele>
        <time>2012-03-14T13:43:11Z</time>
      </trkpt>
      <trkpt lat="59.9908915" lon="17.737962">
        <ele>68.3909</ele>
        <time>2012-03-14T13:43:19Z</time>
      </trkpt>
      <trkpt lat="59.9908105" lon="17.7380234">
        <ele>68.8716</ele>
        <time>2012-03-14T13:43:24Z</time>
      </trkpt>
      <trkpt lat="59.990754" lon="17.738038">
        <ele>65.5071</ele>
        <time>2012-03-14T13:43:28Z</time>
      </trkpt>
      <trkpt lat="59.9906701" lon="17.7380567">
        <ele>66.4683</ele>
        <time>2012-03-14T13:43:34Z</time>
      </trkpt>
      <trkpt lat="59.9905903" lon="17.738099">
        <ele>65.5071</ele>
        <time>2012-03-14T13:43:40Z</time>
      </trkpt>
      <trkpt lat="59.9904792" lon="17.7381565">
        <ele>66.4683</ele>
        <time>2012-03-14T13:43:48Z</time>
      </trkpt>
      <trkpt lat="59.9904134" lon="17.7381831">
        <ele>63.1036</ele>
        <time>2012-03-14T13:43:53Z</time>
      </trkpt>
      <trkpt lat="59.9903081" lon="17.7382167">
        <ele>58.7777</ele>
        <time>2012-03-14T13:44:01Z</time>
      </trkpt>
      <trkpt lat="59.9902818" lon="17.738239">
        <ele>58.2971</ele>
        <time>2012-03-14T13:44:03Z</time>
      </trkpt>
      <trkpt lat="59.9901729" lon="17.7382876">
        <ele>59.2584</ele>
        <time>2012-03-14T13:44:10Z</time>
      </trkpt>
      <trkpt lat="59.9900754" lon="17.738326">
        <ele>63.1036</ele>
        <time>2012-03-14T13:44:16Z</time>
      </trkpt>
      <trkpt lat="59.9900132" lon="17.7383573">
        <ele>63.5844</ele>
        <time>2012-03-14T13:44:19Z</time>
      </trkpt>
      <trkpt lat="59.9899016" lon="17.7383914">
        <ele>66.949</ele>
        <time>2012-03-14T13:44:25Z</time>
      </trkpt>
      <trkpt lat="59.9898008" lon="17.7384208">
        <ele>69.3523</ele>
        <time>2012-03-14T13:44:31Z</time>
      </trkpt>
      <trkpt lat="59.9897441" lon="17.7384525">
        <ele>71.2749</ele>
        <time>2012-03-14T13:44:34Z</time>
      </trkpt>
      <trkpt lat="59.9896574" lon="17.738483">
        <ele>71.7555</ele>
        <time>2012-03-14T13:44:40Z</time>
      </trkpt>
      <trkpt lat="59.9895782" lon="17.7384956">
        <ele>67.4297</ele>
        <time>2012-03-14T13:44:46Z</time>
      </trkpt>
      <trkpt lat="59.9895101" lon="17.7385147">
        <ele>67.9103</ele>
        <time>2012-03-14T13:44:50Z</time>
      </trkpt>
      <trkpt lat="59.9894158" lon="17.738553">
        <ele>65.9877</ele>
        <time>2012-03-14T13:44:56Z</time>
      </trkpt>
      <trkpt lat="59.9893656" lon="17.7385872">
        <ele>67.9103</ele>
        <time>2012-03-14T13:44:59Z</time>
      </trkpt>
      <trkpt lat="59.9892947" lon="17.7385976">
        <ele>69.8329</ele>
        <time>2012-03-14T13:45:03Z</time>
      </trkpt>
      <trkpt lat="59.9892761" lon="17.7386213">
        <ele>70.7942</ele>
        <time>2012-03-14T13:45:04Z</time>
      </trkpt>
      <trkpt lat="59.9891415" lon="17.7386654">
        <ele>74.1588</ele>
        <time>2012-03-14T13:45:13Z</time>
      </trkpt>
      <trkpt lat="59.9890949" lon="17.7386828">
        <ele>75.1202</ele>
        <time>2012-03-14T13:45:16Z</time>
      </trkpt>
      <trkpt lat="59.9890284" lon="17.7387572">
        <ele>74.6395</ele>
        <time>2012-03-14T13:45:21Z</time>
      </trkpt>
      <trkpt lat="59.9889531" lon="17.7388318">
        <ele>72.2362</ele>
        <time>2012-03-14T13:45:27Z</time>
      </trkpt>
      <trkpt lat="59.9888839" lon="17.7389212">
        <ele>66.949</ele>
        <time>2012-03-14T13:45:33Z</time>
      </trkpt>
      <trkpt lat="59.9888276" lon="17.7389586">
        <ele>64.5457</ele>
        <time>2012-03-14T13:45:37Z</time>
      </trkpt>
      <trkpt lat="59.9887819" lon="17.7389936">
        <ele>63.1036</ele>
        <time>2012-03-14T13:45:40Z</time>
      </trkpt>
      <trkpt lat="59.9886799" lon="17.7391148">
        <ele>56.8551</ele>
        <time>2012-03-14T13:45:47Z</time>
      </trkpt>
      <trkpt lat="59.988605" lon="17.7391925">
        <ele>52.0486</ele>
        <time>2012-03-14T13:45:52Z</time>
      </trkpt>
      <trkpt lat="59.9885119" lon="17.7392774">
        <ele>49.1646</ele>
        <time>2012-03-14T13:45:58Z</time>
      </trkpt>
      <trkpt lat="59.9884373" lon="17.7393274">
        <ele>45.7999</ele>
        <time>2012-03-14T13:46:02Z</time>
      </trkpt>
      <trkpt lat="59.9883448" lon="17.7393801">
        <ele>41.474</ele>
        <time>2012-03-14T13:46:08Z</time>
      </trkpt>
      <trkpt lat="59.9883108" lon="17.7393859">
        <ele>41.474</ele>
        <time>2012-03-14T13:46:10Z</time>
      </trkpt>
      <trkpt lat="59.9882421" lon="17.7394069">
        <ele>41.9547</ele>
        <time>2012-03-14T13:46:14Z</time>
      </trkpt>
      <trkpt lat="59.9881431" lon="17.7393958">
        <ele>46.7612</ele>
        <time>2012-03-14T13:46:20Z</time>
      </trkpt>
      <trkpt lat="59.9880464" lon="17.7393989">
        <ele>51.0872</ele>
        <time>2012-03-14T13:46:26Z</time>
      </trkpt>
      <trkpt lat="59.9880101" lon="17.7394087">
        <ele>54.4518</ele>
        <time>2012-03-14T13:46:28Z</time>
      </trkpt>
      <trkpt lat="59.9879122" lon="17.7394235">
        <ele>62.1423</ele>
        <time>2012-03-14T13:46:34Z</time>
      </trkpt>
      <trkpt lat="59.9878201" lon="17.7394035">
        <ele>66.4683</ele>
        <time>2012-03-14T13:46:39Z</time>
      </trkpt>
      <trkpt lat="59.9877969" lon="17.7394036">
        <ele>67.9103</ele>
        <time>2012-03-14T13:46:40Z</time>
      </trkpt>
      <trkpt lat="59.9876702" lon="17.7393796">
        <ele>68.8716</ele>
        <time>2012-03-14T13:46:45Z</time>
      </trkpt>
      <trkpt lat="59.9875897" lon="17.7393895">
        <ele>67.4297</ele>
        <time>2012-03-14T13:46:50Z</time>
      </trkpt>
      <trkpt lat="59.987539" lon="17.7394041">
        <ele>69.8329</ele>
        <time>2012-03-14T13:46:53Z</time>
      </trkpt>
      <trkpt lat="59.9874797" lon="17.7393862">
        <ele>71.7555</ele>
        <time>2012-03-14T13:46:56Z</time>
      </trkpt>
      <trkpt lat="59.9874044" lon="17.7394185">
        <ele>72.2362</ele>
        <time>2012-03-14T13:47:02Z</time>
      </trkpt>
      <trkpt lat="59.9873273" lon="17.739403">
        <ele>72.7169</ele>
        <time>2012-03-14T13:47:07Z</time>
      </trkpt>
      <trkpt lat="59.9872397" lon="17.7393844">
        <ele>74.6395</ele>
        <time>2012-03-14T13:47:12Z</time>
      </trkpt>
      <trkpt lat="59.9871754" lon="17.7393622">
        <ele>79.446</ele>
        <time>2012-03-14T13:47:17Z</time>
      </trkpt>
      <trkpt lat="59.9870798" lon="17.7393349">
        <ele>83.772</ele>
        <time>2012-03-14T13:47:22Z</time>
      </trkpt>
      <trkpt lat="59.9869918" lon="17.7392829">
        <ele>85.214</ele>
        <time>2012-03-14T13:47:27Z</time>
      </trkpt>
      <trkpt lat="59.9869104" lon="17.73923">
        <ele>86.1753</ele>
        <time>2012-03-14T13:47:33Z</time>
      </trkpt>
      <trkpt lat="59.9868476" lon="17.7391948">
        <ele>85.214</ele>
        <time>2012-03-14T13:47:39Z</time>
      </trkpt>
      <trkpt lat="59.986776" lon="17.7391524">
        <ele>85.214</ele>
        <time>2012-03-14T13:47:44Z</time>
      </trkpt>
      <trkpt lat="59.9867155" lon="17.7391202">
        <ele>83.2914</ele>
        <time>2012-03-14T13:47:48Z</time>
      </trkpt>
      <trkpt lat="59.9866996" lon="17.7390723">
        <ele>82.8108</ele>
        <time>2012-03-14T13:47:51Z</time>
      </trkpt>
      <trkpt lat="59.9866635" lon="17.7390031">
        <ele>77.5234</ele>
        <time>2012-03-14T13:47:56Z</time>
      </trkpt>
      <trkpt lat="59.9865939" lon="17.7389533">
        <ele>71.2749</ele>
        <time>2012-03-14T13:48:01Z</time>
      </trkpt>
      <trkpt lat="59.9865156" lon="17.7388662">
        <ele>67.4297</ele>
        <time>2012-03-14T13:48:07Z</time>
      </trkpt>
      <trkpt lat="59.9864527" lon="17.7387958">
        <ele>66.949</ele>
        <time>2012-03-14T13:48:11Z</time>
      </trkpt>
      <trkpt lat="59.986379" lon="17.7387387">
        <ele>65.5071</ele>
        <time>2012-03-14T13:48:16Z</time>
      </trkpt>
      <trkpt lat="59.9862959" lon="17.7387123">
        <ele>66.949</ele>
        <time>2012-03-14T13:48:21Z</time>
      </trkpt>
      <trkpt lat="59.9861902" lon="17.7386514">
        <ele>70.3135</ele>
        <time>2012-03-14T13:48:27Z</time>
      </trkpt>
      <trkpt lat="59.9860808" lon="17.7385641">
        <ele>73.1976</ele>
        <time>2012-03-14T13:48:33Z</time>
      </trkpt>
      <trkpt lat="59.985984" lon="17.7385194">
        <ele>72.2362</ele>
        <time>2012-03-14T13:48:39Z</time>
      </trkpt>
      <trkpt lat="59.9859088" lon="17.7384989">
        <ele>73.1976</ele>
        <time>2012-03-14T13:48:44Z</time>
      </trkpt>
      <trkpt lat="59.9858069" lon="17.7384315">
        <ele>73.6782</ele>
        <time>2012-03-14T13:48:50Z</time>
      </trkpt>
      <trkpt lat="59.9857236" lon="17.7383825">
        <ele>72.7169</ele>
        <time>2012-03-14T13:48:55Z</time>
      </trkpt>
      <trkpt lat="59.9856509" lon="17.7383685">
        <ele>72.7169</ele>
        <time>2012-03-14T13:49:00Z</time>
      </trkpt>
      <trkpt lat="59.9856166" lon="17.7383483">
        <ele>72.7169</ele>
        <time>2012-03-14T13:49:02Z</time>
      </trkpt>
      <trkpt lat="59.9855448" lon="17.7383276">
        <ele>66.949</ele>
        <time>2012-03-14T13:49:06Z</time>
      </trkpt>
      <trkpt lat="59.9854298" lon="17.7382989">
        <ele>63.1036</ele>
        <time>2012-03-14T13:49:13Z</time>
      </trkpt>
      <trkpt lat="59.9853232" lon="17.7382572">
        <ele>62.1423</ele>
        <time>2012-03-14T13:49:19Z</time>
      </trkpt>
      <trkpt lat="59.9852009" lon="17.7382181">
        <ele>63.5844</ele>
        <time>2012-03-14T13:49:26Z</time>
      </trkpt>
      <trkpt lat="59.9851019" lon="17.7381767">
        <ele>65.9877</ele>
        <time>2012-03-14T13:49:31Z</time>
      </trkpt>
      <trkpt lat="59.985004" lon="17.7381842">
        <ele>67.4297</ele>
        <time>2012-03-14T13:49:37Z</time>
      </trkpt>
      <trkpt lat="59.9849117" lon="17.7381706">
        <ele>64.5457</ele>
        <time>2012-03-14T13:49:44Z</time>
      </trkpt>
      <trkpt lat="59.9848958" lon="17.7381692">
        <ele>65.0264</ele>
        <time>2012-03-14T13:49:45Z</time>
      </trkpt>
      <trkpt lat="59.9848368" lon="17.7381749">
        <ele>64.0651</ele>
        <time>2012-03-14T13:49:49Z</time>
      </trkpt>
      <trkpt lat="59.9847881" lon="17.7381914">
        <ele>61.181</ele>
        <time>2012-03-14T13:49:53Z</time>
      </trkpt>
      <trkpt lat="59.9846943" lon="17.7381637">
        <ele>55.4131</ele>
        <time>2012-03-14T13:50:00Z</time>
      </trkpt>
      <trkpt lat="59.9846425" lon="17.7381468">
        <ele>53.0098</ele>
        <time>2012-03-14T13:50:06Z</time>
      </trkpt>
      <trkpt lat="59.9845689" lon="17.7381238">
        <ele>50.6066</ele>
        <time>2012-03-14T13:50:11Z</time>
      </trkpt>
      <trkpt lat="59.9845394" lon="17.7381034">
        <ele>51.0872</ele>
        <time>2012-03-14T13:50:13Z</time>
      </trkpt>
      <trkpt lat="59.9844695" lon="17.7380883">
        <ele>51.0872</ele>
        <time>2012-03-14T13:50:17Z</time>
      </trkpt>
      <trkpt lat="59.9843836" lon="17.7380319">
        <ele>53.0098</ele>
        <time>2012-03-14T13:50:22Z</time>
      </trkpt>
      <trkpt lat="59.9843683" lon="17.7380347">
        <ele>52.5292</ele>
        <time>2012-03-14T13:50:23Z</time>
      </trkpt>
      <trkpt lat="59.9842584" lon="17.7380099">
        <ele>53.9712</ele>
        <time>2012-03-14T13:50:29Z</time>
      </trkpt>
      <trkpt lat="59.9841949" lon="17.7379817">
        <ele>53.9712</ele>
        <time>2012-03-14T13:50:33Z</time>
      </trkpt>
      <trkpt lat="59.9841017" lon="17.7379514">
        <ele>55.4131</ele>
        <time>2012-03-14T13:50:38Z</time>
      </trkpt>
      <trkpt lat="59.9840047" lon="17.7379385">
        <ele>57.3358</ele>
        <time>2012-03-14T13:50:44Z</time>
      </trkpt>
      <trkpt lat="59.9839871" lon="17.7379313">
        <ele>57.3358</ele>
        <time>2012-03-14T13:50:45Z</time>
      </trkpt>
      <trkpt lat="59.9839308" lon="17.7379484">
        <ele>55.8938</ele>
        <time>2012-03-14T13:50:50Z</time>
      </trkpt>
      <trkpt lat="59.9838717" lon="17.7379552">
        <ele>57.3358</ele>
        <time>2012-03-14T13:50:54Z</time>
      </trkpt>
      <trkpt lat="59.983824" lon="17.7379646">
        <ele>55.8938</ele>
        <time>2012-03-14T13:50:57Z</time>
      </trkpt>
      <trkpt lat="59.9837406" lon="17.7379798">
        <ele>57.3358</ele>
        <time>2012-03-14T13:51:02Z</time>
      </trkpt>
      <trkpt lat="59.9837127" lon="17.7379893">
        <ele>58.2971</ele>
        <time>2012-03-14T13:51:04Z</time>
      </trkpt>
      <trkpt lat="59.9835886" lon="17.7380275">
        <ele>60.2197</ele>
        <time>2012-03-14T13:51:11Z</time>
      </trkpt>
      <trkpt lat="59.9834271" lon="17.7380736">
        <ele>59.7391</ele>
        <time>2012-03-14T13:51:20Z</time>
      </trkpt>
      <trkpt lat="59.9833294" lon="17.7380956">
        <ele>61.181</ele>
        <time>2012-03-14T13:51:26Z</time>
      </trkpt>
      <trkpt lat="59.9832486" lon="17.73812">
        <ele>58.2971</ele>
        <time>2012-03-14T13:51:32Z</time>
      </trkpt>
      <trkpt lat="59.9831874" lon="17.7381603">
        <ele>56.3745</ele>
        <time>2012-03-14T13:51:36Z</time>
      </trkpt>
      <trkpt lat="59.983126" lon="17.7381705">
        <ele>52.0486</ele>
        <time>2012-03-14T13:51:41Z</time>
      </trkpt>
      <trkpt lat="59.9830226" lon="17.7381814">
        <ele>48.2034</ele>
        <time>2012-03-14T13:51:49Z</time>
      </trkpt>
      <trkpt lat="59.9829442" lon="17.7381545">
        <ele>43.8773</ele>
        <time>2012-03-14T13:51:55Z</time>
      </trkpt>
      <trkpt lat="59.982891" lon="17.7381711">
        <ele>43.3966</ele>
        <time>2012-03-14T13:51:59Z</time>
      </trkpt>
      <trkpt lat="59.9828217" lon="17.7381847">
        <ele>41.474</ele>
        <time>2012-03-14T13:52:04Z</time>
      </trkpt>
      <trkpt lat="59.9827486" lon="17.7381795">
        <ele>40.9934</ele>
        <time>2012-03-14T13:52:08Z</time>
      </trkpt>
      <trkpt lat="59.9826901" lon="17.7381696">
        <ele>40.5128</ele>
        <time>2012-03-14T13:52:12Z</time>
      </trkpt>
      <trkpt lat="59.9826427" lon="17.7381671">
        <ele>39.5513</ele>
        <time>2012-03-14T13:52:16Z</time>
      </trkpt>
      <trkpt lat="59.9825298" lon="17.7381635">
        <ele>39.0707</ele>
        <time>2012-03-14T13:52:23Z</time>
      </trkpt>
      <trkpt lat="59.9824257" lon="17.7381993">
        <ele>37.6287</ele>
        <time>2012-03-14T13:52:30Z</time>
      </trkpt>
      <trkpt lat="59.9823223" lon="17.7382278">
        <ele>39.0707</ele>
        <time>2012-03-14T13:52:36Z</time>
      </trkpt>
      <trkpt lat="59.9822108" lon="17.7382932">
        <ele>40.9934</ele>
        <time>2012-03-14T13:52:42Z</time>
      </trkpt>
      <trkpt lat="59.982118" lon="17.7383302">
        <ele>41.9547</ele>
        <time>2012-03-14T13:52:47Z</time>
      </trkpt>
      <trkpt lat="59.9820349" lon="17.7383452">
        <ele>43.3966</ele>
        <time>2012-03-14T13:52:52Z</time>
      </trkpt>
      <trkpt lat="59.9819408" lon="17.7383738">
        <ele>44.358</ele>
        <time>2012-03-14T13:52:58Z</time>
      </trkpt>
      <trkpt lat="59.9818798" lon="17.7384272">
        <ele>43.8773</ele>
        <time>2012-03-14T13:53:03Z</time>
      </trkpt>
      <trkpt lat="59.9817572" lon="17.7385162">
        <ele>43.8773</ele>
        <time>2012-03-14T13:53:11Z</time>
      </trkpt>
      <trkpt lat="59.9816808" lon="17.7385776">
        <ele>43.3966</ele>
        <time>2012-03-14T13:53:17Z</time>
      </trkpt>
      <trkpt lat="59.9816432" lon="17.7386181">
        <ele>43.3966</ele>
        <time>2012-03-14T13:53:20Z</time>
      </trkpt>
      <trkpt lat="59.9814866" lon="17.738628">
        <ele>44.358</ele>
        <time>2012-03-14T13:53:28Z</time>
      </trkpt>
      <trkpt lat="59.9814633" lon="17.7386274">
        <ele>44.8386</ele>
        <time>2012-03-14T13:53:29Z</time>
      </trkpt>
      <trkpt lat="59.9813337" lon="17.7386795">
        <ele>45.7999</ele>
        <time>2012-03-14T13:53:35Z</time>
      </trkpt>
      <trkpt lat="59.9812372" lon="17.7387083">
        <ele>44.8386</ele>
        <time>2012-03-14T13:53:40Z</time>
      </trkpt>
      <trkpt lat="59.9811589" lon="17.7386952">
        <ele>44.8386</ele>
        <time>2012-03-14T13:53:44Z</time>
      </trkpt>
      <trkpt lat="59.9810619" lon="17.7387247">
        <ele>44.8386</ele>
        <time>2012-03-14T13:53:50Z</time>
      </trkpt>
      <trkpt lat="59.9809717" lon="17.738741">
        <ele>46.7612</ele>
        <time>2012-03-14T13:53:55Z</time>
      </trkpt>
      <trkpt lat="59.9808711" lon="17.7387375">
        <ele>45.3192</ele>
        <time>2012-03-14T13:54:01Z</time>
      </trkpt>
      <trkpt lat="59.9807978" lon="17.7387519">
        <ele>45.7999</ele>
        <time>2012-03-14T13:54:06Z</time>
      </trkpt>
      <trkpt lat="59.9807729" lon="17.7387488">
        <ele>44.8386</ele>
        <time>2012-03-14T13:54:08Z</time>
      </trkpt>
      <trkpt lat="59.9807093" lon="17.7387801">
        <ele>45.3192</ele>
        <time>2012-03-14T13:54:13Z</time>
      </trkpt>
      <trkpt lat="59.9806584" lon="17.7387876">
        <ele>46.2806</ele>
        <time>2012-03-14T13:54:17Z</time>
      </trkpt>
      <trkpt lat="59.9805664" lon="17.7388247">
        <ele>46.7612</ele>
        <time>2012-03-14T13:54:23Z</time>
      </trkpt>
      <trkpt lat="59.9804723" lon="17.738831">
        <ele>44.358</ele>
        <time>2012-03-14T13:54:29Z</time>
      </trkpt>
      <trkpt lat="59.9804278" lon="17.7388385">
        <ele>43.8773</ele>
        <time>2012-03-14T13:54:32Z</time>
      </trkpt>
      <trkpt lat="59.9803741" lon="17.7388249">
        <ele>41.474</ele>
        <time>2012-03-14T13:54:36Z</time>
      </trkpt>
      <trkpt lat="59.9802897" lon="17.7388294">
        <ele>39.0707</ele>
        <time>2012-03-14T13:54:43Z</time>
      </trkpt>
      <trkpt lat="59.9801958" lon="17.7388285">
        <ele>38.5901</ele>
        <time>2012-03-14T13:54:49Z</time>
      </trkpt>
      <trkpt lat="59.9801316" lon="17.7388171">
        <ele>38.5901</ele>
        <time>2012-03-14T13:54:53Z</time>
      </trkpt>
      <trkpt lat="59.9800643" lon="17.7388166">
        <ele>38.1094</ele>
        <time>2012-03-14T13:54:57Z</time>
      </trkpt>
      <trkpt lat="59.9799986" lon="17.7387949">
        <ele>35.7061</ele>
        <time>2012-03-14T13:55:02Z</time>
      </trkpt>
      <trkpt lat="59.9799281" lon="17.7387996">
        <ele>33.7834</ele>
        <time>2012-03-14T13:55:07Z</time>
      </trkpt>
      <trkpt lat="59.9798245" lon="17.7388342">
        <ele>31.3801</ele>
        <time>2012-03-14T13:55:14Z</time>
      </trkpt>
      <trkpt lat="59.9798135" lon="17.7388366">
        <ele>31.3801</ele>
        <time>2012-03-14T13:55:15Z</time>
      </trkpt>
      <trkpt lat="59.979737" lon="17.7388762">
        <ele>32.3416</ele>
        <time>2012-03-14T13:55:20Z</time>
      </trkpt>
      <trkpt lat="59.9796846" lon="17.7389016">
        <ele>33.3029</ele>
        <time>2012-03-14T13:55:23Z</time>
      </trkpt>
      <trkpt lat="59.979565" lon="17.7389709">
        <ele>36.1868</ele>
        <time>2012-03-14T13:55:30Z</time>
      </trkpt>
      <trkpt lat="59.9795075" lon="17.7389999">
        <ele>37.6287</ele>
        <time>2012-03-14T13:55:34Z</time>
      </trkpt>
      <trkpt lat="59.9794209" lon="17.7390589">
        <ele>40.5128</ele>
        <time>2012-03-14T13:55:39Z</time>
      </trkpt>
      <trkpt lat="59.9793199" lon="17.7391322">
        <ele>44.358</ele>
        <time>2012-03-14T13:55:44Z</time>
      </trkpt>
      <trkpt lat="59.9792961" lon="17.7391345">
        <ele>43.3966</ele>
        <time>2012-03-14T13:55:48Z</time>
      </trkpt>
      <trkpt lat="59.9792651" lon="17.7391269">
        <ele>42.916</ele>
        <time>2012-03-14T13:55:51Z</time>
      </trkpt>
      <trkpt lat="59.9791421" lon="17.7392073">
        <ele>40.0321</ele>
        <time>2012-03-14T13:55:58Z</time>
      </trkpt>
      <trkpt lat="59.9790488" lon="17.7392683">
        <ele>37.1481</ele>
        <time>2012-03-14T13:56:04Z</time>
      </trkpt>
      <trkpt lat="59.9789677" lon="17.7392963">
        <ele>39.0707</ele>
        <time>2012-03-14T13:56:10Z</time>
      </trkpt>
      <trkpt lat="59.9789268" lon="17.7393223">
        <ele>36.6675</ele>
        <time>2012-03-14T13:56:13Z</time>
      </trkpt>
      <trkpt lat="59.9788479" lon="17.7393279">
        <ele>33.7834</ele>
        <time>2012-03-14T13:56:19Z</time>
      </trkpt>
      <trkpt lat="59.9787263" lon="17.7393683">
        <ele>31.8607</ele>
        <time>2012-03-14T13:56:27Z</time>
      </trkpt>
      <trkpt lat="59.9786052" lon="17.7393697">
        <ele>30.8995</ele>
        <time>2012-03-14T13:56:35Z</time>
      </trkpt>
      <trkpt lat="59.9785912" lon="17.7393643">
        <ele>30.4188</ele>
        <time>2012-03-14T13:56:36Z</time>
      </trkpt>
      <trkpt lat="59.9784766" lon="17.7393463">
        <ele>32.8223</ele>
        <time>2012-03-14T13:56:42Z</time>
      </trkpt>
      <trkpt lat="59.978392" lon="17.7393349">
        <ele>33.7834</ele>
        <time>2012-03-14T13:56:47Z</time>
      </trkpt>
      <trkpt lat="59.9782667" lon="17.7392959">
        <ele>37.1481</ele>
        <time>2012-03-14T13:56:54Z</time>
      </trkpt>
      <trkpt lat="59.9781353" lon="17.7392294">
        <ele>39.0707</ele>
        <time>2012-03-14T13:57:02Z</time>
      </trkpt>
      <trkpt lat="59.9780332" lon="17.7391811">
        <ele>39.0707</ele>
        <time>2012-03-14T13:57:09Z</time>
      </trkpt>
      <trkpt lat="59.9779291" lon="17.7391361">
        <ele>39.0707</ele>
        <time>2012-03-14T13:57:16Z</time>
      </trkpt>
      <trkpt lat="59.9778477" lon="17.7390735">
        <ele>37.6287</ele>
        <time>2012-03-14T13:57:22Z</time>
      </trkpt>
      <trkpt lat="59.977769" lon="17.7390245">
        <ele>36.1868</ele>
        <time>2012-03-14T13:57:28Z</time>
      </trkpt>
      <trkpt lat="59.9776746" lon="17.7389908">
        <ele>35.2255</ele>
        <time>2012-03-14T13:57:34Z</time>
      </trkpt>
      <trkpt lat="59.9775743" lon="17.7389969">
        <ele>33.7834</ele>
        <time>2012-03-14T13:57:40Z</time>
      </trkpt>
      <trkpt lat="59.9774545" lon="17.7390456">
        <ele>33.7834</ele>
        <time>2012-03-14T13:57:47Z</time>
      </trkpt>
      <trkpt lat="59.9774121" lon="17.739055">
        <ele>33.7834</ele>
        <time>2012-03-14T13:57:50Z</time>
      </trkpt>
      <trkpt lat="59.9773383" lon="17.7391115">
        <ele>33.3029</ele>
        <time>2012-03-14T13:57:54Z</time>
      </trkpt>
      <trkpt lat="59.9772216" lon="17.7391886">
        <ele>33.3029</ele>
        <time>2012-03-14T13:58:01Z</time>
      </trkpt>
      <trkpt lat="59.9771513" lon="17.7392541">
        <ele>32.3416</ele>
        <time>2012-03-14T13:58:06Z</time>
      </trkpt>
      <trkpt lat="59.9771381" lon="17.7392668">
        <ele>32.3416</ele>
        <time>2012-03-14T13:58:07Z</time>
      </trkpt>
      <trkpt lat="59.9770438" lon="17.7393375">
        <ele>33.3029</ele>
        <time>2012-03-14T13:58:13Z</time>
      </trkpt>
      <trkpt lat="59.9769586" lon="17.7393776">
        <ele>32.8223</ele>
        <time>2012-03-14T13:58:18Z</time>
      </trkpt>
      <trkpt lat="59.976865" lon="17.7393959">
        <ele>32.8223</ele>
        <time>2012-03-14T13:58:24Z</time>
      </trkpt>
      <trkpt lat="59.9767661" lon="17.7394207">
        <ele>32.3416</ele>
        <time>2012-03-14T13:58:30Z</time>
      </trkpt>
      <trkpt lat="59.9766745" lon="17.739448">
        <ele>30.8995</ele>
        <time>2012-03-14T13:58:36Z</time>
      </trkpt>
      <trkpt lat="59.9765878" lon="17.7395108">
        <ele>30.8995</ele>
        <time>2012-03-14T13:58:42Z</time>
      </trkpt>
      <trkpt lat="59.9765288" lon="17.7395749">
        <ele>32.3416</ele>
        <time>2012-03-14T13:58:47Z</time>
      </trkpt>
      <trkpt lat="59.9764634" lon="17.7396805">
        <ele>33.7834</ele>
        <time>2012-03-14T13:58:53Z</time>
      </trkpt>
      <trkpt lat="59.9763766" lon="17.7398685">
        <ele>34.2642</ele>
        <time>2012-03-14T13:59:01Z</time>
      </trkpt>
      <trkpt lat="59.9762906" lon="17.739893">
        <ele>32.8223</ele>
        <time>2012-03-14T13:59:06Z</time>
      </trkpt>
      <trkpt lat="59.976251" lon="17.7398695">
        <ele>32.8223</ele>
        <time>2012-03-14T13:59:08Z</time>
      </trkpt>
      <trkpt lat="59.9762287" lon="17.7397243">
        <ele>30.8995</ele>
        <time>2012-03-14T13:59:12Z</time>
      </trkpt>
      <trkpt lat="59.9761685" lon="17.7396414">
        <ele>28.0155</ele>
        <time>2012-03-14T13:59:16Z</time>
      </trkpt>
      <trkpt lat="59.9761481" lon="17.7396256">
        <ele>27.0543</ele>
        <time>2012-03-14T13:59:17Z</time>
      </trkpt>
      <trkpt lat="59.9760502" lon="17.7394994">
        <ele>22.2476</ele>
        <time>2012-03-14T13:59:24Z</time>
      </trkpt>
      <trkpt lat="59.9759891" lon="17.7393735">
        <ele>20.325</ele>
        <time>2012-03-14T13:59:30Z</time>
      </trkpt>
      <trkpt lat="59.9759646" lon="17.7393383">
        <ele>20.325</ele>
        <time>2012-03-14T13:59:32Z</time>
      </trkpt>
      <trkpt lat="59.9758794" lon="17.7391906">
        <ele>20.8057</ele>
        <time>2012-03-14T13:59:39Z</time>
      </trkpt>
      <trkpt lat="59.9758114" lon="17.7390657">
        <ele>20.325</ele>
        <time>2012-03-14T13:59:45Z</time>
      </trkpt>
      <trkpt lat="59.9757291" lon="17.7389585">
        <ele>20.8057</ele>
        <time>2012-03-14T13:59:51Z</time>
      </trkpt>
      <trkpt lat="59.9756491" lon="17.738825">
        <ele>22.2476</ele>
        <time>2012-03-14T13:59:57Z</time>
      </trkpt>
      <trkpt lat="59.9755729" lon="17.7386637">
        <ele>21.767</ele>
        <time>2012-03-14T14:00:04Z</time>
      </trkpt>
      <trkpt lat="59.9755632" lon="17.7386426">
        <ele>21.767</ele>
        <time>2012-03-14T14:00:05Z</time>
      </trkpt>
      <trkpt lat="59.9754282" lon="17.7383816">
        <ele>21.2864</ele>
        <time>2012-03-14T14:00:17Z</time>
      </trkpt>
      <trkpt lat="59.9753815" lon="17.7382587">
        <ele>20.8057</ele>
        <time>2012-03-14T14:00:22Z</time>
      </trkpt>
      <trkpt lat="59.9753732" lon="17.7382324">
        <ele>20.8057</ele>
        <time>2012-03-14T14:00:23Z</time>
      </trkpt>
      <trkpt lat="59.9753132" lon="17.7381022">
        <ele>20.8057</ele>
        <time>2012-03-14T14:00:29Z</time>
      </trkpt>
      <trkpt lat="59.9752271" lon="17.7379355">
        <ele>19.3638</ele>
        <time>2012-03-14T14:00:37Z</time>
      </trkpt>
      <trkpt lat="59.9751273" lon="17.73776">
        <ele>19.3638</ele>
        <time>2012-03-14T14:00:45Z</time>
      </trkpt>
      <trkpt lat="59.9751036" lon="17.7377121">
        <ele>18.8831</ele>
        <time>2012-03-14T14:00:47Z</time>
      </trkpt>
      <trkpt lat="59.9750463" lon="17.7376465">
        <ele>18.4023</ele>
        <time>2012-03-14T14:00:51Z</time>
      </trkpt>
      <trkpt lat="59.9749655" lon="17.7375043">
        <ele>16.9604</ele>
        <time>2012-03-14T14:00:58Z</time>
      </trkpt>
      <trkpt lat="59.9748726" lon="17.7373331">
        <ele>15.999</ele>
        <time>2012-03-14T14:01:06Z</time>
      </trkpt>
      <trkpt lat="59.9747986" lon="17.7371528">
        <ele>15.5184</ele>
        <time>2012-03-14T14:01:13Z</time>
      </trkpt>
      <trkpt lat="59.974692" lon="17.736853">
        <ele>15.999</ele>
        <time>2012-03-14T14:01:24Z</time>
      </trkpt>
      <trkpt lat="59.974604" lon="17.7365739">
        <ele>16.9604</ele>
        <time>2012-03-14T14:01:34Z</time>
      </trkpt>
      <trkpt lat="59.9745308" lon="17.7362991">
        <ele>16.4797</ele>
        <time>2012-03-14T14:01:44Z</time>
      </trkpt>
      <trkpt lat="59.9744677" lon="17.7359962">
        <ele>16.4797</ele>
        <time>2012-03-14T14:01:54Z</time>
      </trkpt>
      <trkpt lat="59.9744486" lon="17.7358903">
        <ele>17.4412</ele>
        <time>2012-03-14T14:01:57Z</time>
      </trkpt>
      <trkpt lat="59.9744222" lon="17.7357628">
        <ele>16.9604</ele>
        <time>2012-03-14T14:02:01Z</time>
      </trkpt>
      <trkpt lat="59.9743812" lon="17.7354672">
        <ele>16.4797</ele>
        <time>2012-03-14T14:02:10Z</time>
      </trkpt>
      <trkpt lat="59.9743588" lon="17.7352331">
        <ele>16.9604</ele>
        <time>2012-03-14T14:02:17Z</time>
      </trkpt>
      <trkpt lat="59.9743196" lon="17.7349429">
        <ele>18.8831</ele>
        <time>2012-03-14T14:02:26Z</time>
      </trkpt>
      <trkpt lat="59.9742987" lon="17.7346803">
        <ele>20.325</ele>
        <time>2012-03-14T14:02:34Z</time>
      </trkpt>
      <trkpt lat="59.9742878" lon="17.7343809">
        <ele>21.767</ele>
        <time>2012-03-14T14:02:43Z</time>
      </trkpt>
      <trkpt lat="59.9742875" lon="17.7341793">
        <ele>22.7283</ele>
        <time>2012-03-14T14:02:49Z</time>
      </trkpt>
      <trkpt lat="59.9742922" lon="17.7338531">
        <ele>22.7283</ele>
        <time>2012-03-14T14:02:59Z</time>
      </trkpt>
      <trkpt lat="59.9743047" lon="17.7336474">
        <ele>21.767</ele>
        <time>2012-03-14T14:03:05Z</time>
      </trkpt>
      <trkpt lat="59.9743119" lon="17.7333501">
        <ele>22.2476</ele>
        <time>2012-03-14T14:03:14Z</time>
      </trkpt>
      <trkpt lat="59.9743055" lon="17.7331273">
        <ele>22.7283</ele>
        <time>2012-03-14T14:03:21Z</time>
      </trkpt>
      <trkpt lat="59.9743067" lon="17.732759">
        <ele>23.6896</ele>
        <time>2012-03-14T14:03:32Z</time>
      </trkpt>
      <trkpt lat="59.9743004" lon="17.7325663">
        <ele>25.1317</ele>
        <time>2012-03-14T14:03:38Z</time>
      </trkpt>
      <trkpt lat="59.9742912" lon="17.7323569">
        <ele>26.0929</ele>
        <time>2012-03-14T14:03:44Z</time>
      </trkpt>
      <trkpt lat="59.9742755" lon="17.7320466">
        <ele>27.5349</ele>
        <time>2012-03-14T14:03:53Z</time>
      </trkpt>
      <trkpt lat="59.9742836" lon="17.7317391">
        <ele>28.0155</ele>
        <time>2012-03-14T14:04:02Z</time>
      </trkpt>
      <trkpt lat="59.9742924" lon="17.7315381">
        <ele>28.4962</ele>
        <time>2012-03-14T14:04:08Z</time>
      </trkpt>
      <trkpt lat="59.9742807" lon="17.7313314">
        <ele>28.4962</ele>
        <time>2012-03-14T14:04:15Z</time>
      </trkpt>
      <trkpt lat="59.9742893" lon="17.7311272">
        <ele>28.4962</ele>
        <time>2012-03-14T14:04:22Z</time>
      </trkpt>
      <trkpt lat="59.9742961" lon="17.7309372">
        <ele>27.5349</ele>
        <time>2012-03-14T14:04:28Z</time>
      </trkpt>
      <trkpt lat="59.9743325" lon="17.7306832">
        <ele>27.0543</ele>
        <time>2012-03-14T14:04:36Z</time>
      </trkpt>
      <trkpt lat="59.9743476" lon="17.7304647">
        <ele>26.0929</ele>
        <time>2012-03-14T14:04:43Z</time>
      </trkpt>
      <trkpt lat="59.9743723" lon="17.7301844">
        <ele>25.1317</ele>
        <time>2012-03-14T14:04:52Z</time>
      </trkpt>
      <trkpt lat="59.9743972" lon="17.729844">
        <ele>25.1317</ele>
        <time>2012-03-14T14:05:02Z</time>
      </trkpt>
      <trkpt lat="59.9744175" lon="17.7295402">
        <ele>26.0929</ele>
        <time>2012-03-14T14:05:11Z</time>
      </trkpt>
      <trkpt lat="59.9744169" lon="17.7292226">
        <ele>28.4962</ele>
        <time>2012-03-14T14:05:21Z</time>
      </trkpt>
      <trkpt lat="59.9744159" lon="17.7288908">
        <ele>28.9769</ele>
        <time>2012-03-14T14:05:31Z</time>
      </trkpt>
      <trkpt lat="59.9744038" lon="17.7286365">
        <ele>27.0543</ele>
        <time>2012-03-14T14:05:39Z</time>
      </trkpt>
      <trkpt lat="59.9743916" lon="17.7283338">
        <ele>24.1703</ele>
        <time>2012-03-14T14:05:49Z</time>
      </trkpt>
      <trkpt lat="59.9743899" lon="17.7280539">
        <ele>22.7283</ele>
        <time>2012-03-14T14:05:58Z</time>
      </trkpt>
      <trkpt lat="59.9743899" lon="17.7277229">
        <ele>22.2476</ele>
        <time>2012-03-14T14:06:08Z</time>
      </trkpt>
      <trkpt lat="59.9743891" lon="17.7274379">
        <ele>23.209</ele>
        <time>2012-03-14T14:06:17Z</time>
      </trkpt>
      <trkpt lat="59.9743826" lon="17.7271869">
        <ele>24.1703</ele>
        <time>2012-03-14T14:06:25Z</time>
      </trkpt>
      <trkpt lat="59.9743817" lon="17.7269845">
        <ele>25.6123</ele>
        <time>2012-03-14T14:06:31Z</time>
      </trkpt>
      <trkpt lat="59.9743639" lon="17.7267357">
        <ele>28.4962</ele>
        <time>2012-03-14T14:06:38Z</time>
      </trkpt>
      <trkpt lat="59.9743535" lon="17.7265091">
        <ele>29.4575</ele>
        <time>2012-03-14T14:06:45Z</time>
      </trkpt>
      <trkpt lat="59.9743385" lon="17.7262808">
        <ele>30.4188</ele>
        <time>2012-03-14T14:06:52Z</time>
      </trkpt>
      <trkpt lat="59.9743256" lon="17.725999">
        <ele>30.8995</ele>
        <time>2012-03-14T14:07:01Z</time>
      </trkpt>
      <trkpt lat="59.9743064" lon="17.7257398">
        <ele>31.3801</ele>
        <time>2012-03-14T14:07:09Z</time>
      </trkpt>
      <trkpt lat="59.9742857" lon="17.7255711">
        <ele>32.3416</ele>
        <time>2012-03-14T14:07:14Z</time>
      </trkpt>
      <trkpt lat="59.9742812" lon="17.7254525">
        <ele>28.4962</ele>
        <time>2012-03-14T14:07:20Z</time>
      </trkpt>
      <trkpt lat="59.9742412" lon="17.7252485">
        <ele>28.9769</ele>
        <time>2012-03-14T14:07:26Z</time>
      </trkpt>
      <trkpt lat="59.9742173" lon="17.7250917">
        <ele>28.0155</ele>
        <time>2012-03-14T14:07:31Z</time>
      </trkpt>
      <trkpt lat="59.9741932" lon="17.7249012">
        <ele>28.0155</ele>
        <time>2012-03-14T14:07:37Z</time>
      </trkpt>
      <trkpt lat="59.9741635" lon="17.7246826">
        <ele>27.5349</ele>
        <time>2012-03-14T14:07:44Z</time>
      </trkpt>
      <trkpt lat="59.9741205" lon="17.7244568">
        <ele>26.5736</ele>
        <time>2012-03-14T14:07:51Z</time>
      </trkpt>
      <trkpt lat="59.9741016" lon="17.7242661">
        <ele>25.6123</ele>
        <time>2012-03-14T14:07:57Z</time>
      </trkpt>
      <trkpt lat="59.9740642" lon="17.7239617">
        <ele>23.6896</ele>
        <time>2012-03-14T14:08:07Z</time>
      </trkpt>
      <trkpt lat="59.9740398" lon="17.7237669">
        <ele>22.2476</ele>
        <time>2012-03-14T14:08:14Z</time>
      </trkpt>
      <trkpt lat="59.9740097" lon="17.7235553">
        <ele>22.7283</ele>
        <time>2012-03-14T14:08:20Z</time>
      </trkpt>
      <trkpt lat="59.9739735" lon="17.7233295">
        <ele>23.209</ele>
        <time>2012-03-14T14:08:27Z</time>
      </trkpt>
      <trkpt lat="59.9739363" lon="17.7231359">
        <ele>22.2476</ele>
        <time>2012-03-14T14:08:34Z</time>
      </trkpt>
      <trkpt lat="59.9738749" lon="17.7229286">
        <ele>22.7283</ele>
        <time>2012-03-14T14:08:41Z</time>
      </trkpt>
      <trkpt lat="59.9738229" lon="17.7227008">
        <ele>21.767</ele>
        <time>2012-03-14T14:08:49Z</time>
      </trkpt>
      <trkpt lat="59.9737813" lon="17.7225423">
        <ele>21.2864</ele>
        <time>2012-03-14T14:08:55Z</time>
      </trkpt>
      <trkpt lat="59.9737167" lon="17.7223382">
        <ele>19.8444</ele>
        <time>2012-03-14T14:09:03Z</time>
      </trkpt>
      <trkpt lat="59.9736403" lon="17.7220906">
        <ele>17.4412</ele>
        <time>2012-03-14T14:09:13Z</time>
      </trkpt>
      <trkpt lat="59.9736098" lon="17.7220252">
        <ele>16.9604</ele>
        <time>2012-03-14T14:09:16Z</time>
      </trkpt>
      <trkpt lat="59.9735627" lon="17.721858">
        <ele>17.4412</ele>
        <time>2012-03-14T14:09:22Z</time>
      </trkpt>
      <trkpt lat="59.9735263" lon="17.721728">
        <ele>17.4412</ele>
        <time>2012-03-14T14:09:27Z</time>
      </trkpt>
      <trkpt lat="59.973436" lon="17.7215428">
        <ele>15.0377</ele>
        <time>2012-03-14T14:09:35Z</time>
      </trkpt>
      <trkpt lat="59.9733601" lon="17.7214182">
        <ele>14.0764</ele>
        <time>2012-03-14T14:09:41Z</time>
      </trkpt>
      <trkpt lat="59.9732901" lon="17.721302">
        <ele>13.1151</ele>
        <time>2012-03-14T14:09:47Z</time>
      </trkpt>
      <trkpt lat="59.9732571" lon="17.7211764">
        <ele>12.6344</ele>
        <time>2012-03-14T14:09:52Z</time>
      </trkpt>
      <trkpt lat="59.9732142" lon="17.7210923">
        <ele>12.6344</ele>
        <time>2012-03-14T14:09:56Z</time>
      </trkpt>
      <trkpt lat="59.9731308" lon="17.7209499">
        <ele>13.5958</ele>
        <time>2012-03-14T14:10:03Z</time>
      </trkpt>
      <trkpt lat="59.9730089" lon="17.7208324">
        <ele>13.1151</ele>
        <time>2012-03-14T14:10:11Z</time>
      </trkpt>
      <trkpt lat="59.9729256" lon="17.7207373">
        <ele>12.1538</ele>
        <time>2012-03-14T14:10:17Z</time>
      </trkpt>
      <trkpt lat="59.9728187" lon="17.7206201">
        <ele>10.7118</ele>
        <time>2012-03-14T14:10:25Z</time>
      </trkpt>
      <trkpt lat="59.9727249" lon="17.7205187">
        <ele>11.1925</ele>
        <time>2012-03-14T14:10:32Z</time>
      </trkpt>
      <trkpt lat="59.9726099" lon="17.7204098">
        <ele>11.6732</ele>
        <time>2012-03-14T14:10:40Z</time>
      </trkpt>
      <trkpt lat="59.9724638" lon="17.72029">
        <ele>11.6732</ele>
        <time>2012-03-14T14:10:50Z</time>
      </trkpt>
      <trkpt lat="59.9723377" lon="17.720167">
        <ele>12.1538</ele>
        <time>2012-03-14T14:10:59Z</time>
      </trkpt>
      <trkpt lat="59.9722372" lon="17.7200636">
        <ele>13.1151</ele>
        <time>2012-03-14T14:11:06Z</time>
      </trkpt>
      <trkpt lat="59.9721257" lon="17.7199611">
        <ele>14.0764</ele>
        <time>2012-03-14T14:11:13Z</time>
      </trkpt>
      <trkpt lat="59.9720375" lon="17.7198745">
        <ele>13.5958</ele>
        <time>2012-03-14T14:11:19Z</time>
      </trkpt>
      <trkpt lat="59.9719963" lon="17.7198358">
        <ele>13.1151</ele>
        <time>2012-03-14T14:11:22Z</time>
      </trkpt>
      <trkpt lat="59.9719336" lon="17.7197259">
        <ele>12.6344</ele>
        <time>2012-03-14T14:11:28Z</time>
      </trkpt>
      <trkpt lat="59.9718715" lon="17.7196747">
        <ele>12.6344</ele>
        <time>2012-03-14T14:11:32Z</time>
      </trkpt>
      <trkpt lat="59.9718171" lon="17.719649">
        <ele>12.1538</ele>
        <time>2012-03-14T14:11:35Z</time>
      </trkpt>
      <trkpt lat="59.9717176" lon="17.71956">
        <ele>14.0764</ele>
        <time>2012-03-14T14:11:41Z</time>
      </trkpt>
      <trkpt lat="59.9716358" lon="17.7194777">
        <ele>15.0377</ele>
        <time>2012-03-14T14:11:46Z</time>
      </trkpt>
      <trkpt lat="59.9714796" lon="17.7193409">
        <ele>16.9604</ele>
        <time>2012-03-14T14:11:56Z</time>
      </trkpt>
      <trkpt lat="59.9714648" lon="17.719327">
        <ele>16.9604</ele>
        <time>2012-03-14T14:11:57Z</time>
      </trkpt>
      <trkpt lat="59.9713967" lon="17.7192908">
        <ele>17.4412</ele>
        <time>2012-03-14T14:12:01Z</time>
      </trkpt>
      <trkpt lat="59.9712966" lon="17.7192037">
        <ele>19.3638</ele>
        <time>2012-03-14T14:12:08Z</time>
      </trkpt>
      <trkpt lat="59.9712681" lon="17.7191782">
        <ele>20.325</ele>
        <time>2012-03-14T14:12:10Z</time>
      </trkpt>
      <trkpt lat="59.9711728" lon="17.7191184">
        <ele>20.8057</ele>
        <time>2012-03-14T14:12:16Z</time>
      </trkpt>
      <trkpt lat="59.9710795" lon="17.7190566">
        <ele>21.2864</ele>
        <time>2012-03-14T14:12:22Z</time>
      </trkpt>
      <trkpt lat="59.9709452" lon="17.7189285">
        <ele>22.2476</ele>
        <time>2012-03-14T14:12:32Z</time>
      </trkpt>
      <trkpt lat="59.9708386" lon="17.7188249">
        <ele>22.7283</ele>
        <time>2012-03-14T14:12:40Z</time>
      </trkpt>
      <trkpt lat="59.970795" lon="17.7187844">
        <ele>23.209</ele>
        <time>2012-03-14T14:12:43Z</time>
      </trkpt>
      <trkpt lat="59.9707293" lon="17.7186933">
        <ele>24.1703</ele>
        <time>2012-03-14T14:12:48Z</time>
      </trkpt>
      <trkpt lat="59.9706095" lon="17.7185526">
        <ele>23.6896</ele>
        <time>2012-03-14T14:12:57Z</time>
      </trkpt>
      <trkpt lat="59.9705345" lon="17.7184827">
        <ele>21.767</ele>
        <time>2012-03-14T14:13:03Z</time>
      </trkpt>
      <trkpt lat="59.9704076" lon="17.7183828">
        <ele>16.9604</ele>
        <time>2012-03-14T14:13:12Z</time>
      </trkpt>
      <trkpt lat="59.9702865" lon="17.7182813">
        <ele>13.5958</ele>
        <time>2012-03-14T14:13:21Z</time>
      </trkpt>
      <trkpt lat="59.9702303" lon="17.7182405">
        <ele>12.6344</ele>
        <time>2012-03-14T14:13:25Z</time>
      </trkpt>
      <trkpt lat="59.9701925" lon="17.7181832">
        <ele>12.6344</ele>
        <time>2012-03-14T14:13:28Z</time>
      </trkpt>
      <trkpt lat="59.970031" lon="17.7180784">
        <ele>11.6732</ele>
        <time>2012-03-14T14:13:39Z</time>
      </trkpt>
      <trkpt lat="59.969918" lon="17.7180143">
        <ele>12.6344</ele>
        <time>2012-03-14T14:13:46Z</time>
      </trkpt>
      <trkpt lat="59.9698495" lon="17.7179349">
        <ele>16.4797</ele>
        <time>2012-03-14T14:13:51Z</time>
      </trkpt>
      <trkpt lat="59.9697249" lon="17.7177989">
        <ele>17.9218</ele>
        <time>2012-03-14T14:14:00Z</time>
      </trkpt>
      <trkpt lat="59.9695927" lon="17.7176977">
        <ele>16.9604</ele>
        <time>2012-03-14T14:14:09Z</time>
      </trkpt>
      <trkpt lat="59.9694995" lon="17.7176391">
        <ele>17.9218</ele>
        <time>2012-03-14T14:14:15Z</time>
      </trkpt>
      <trkpt lat="59.9694208" lon="17.7175926">
        <ele>17.9218</ele>
        <time>2012-03-14T14:14:20Z</time>
      </trkpt>
      <trkpt lat="59.96934" lon="17.7175524">
        <ele>18.8831</ele>
        <time>2012-03-14T14:14:25Z</time>
      </trkpt>
      <trkpt lat="59.9692481" lon="17.717501">
        <ele>19.3638</ele>
        <time>2012-03-14T14:14:31Z</time>
      </trkpt>
      <trkpt lat="59.9691422" lon="17.7174465">
        <ele>19.8444</ele>
        <time>2012-03-14T14:14:38Z</time>
      </trkpt>
      <trkpt lat="59.9690312" lon="17.7174124">
        <ele>19.3638</ele>
        <time>2012-03-14T14:14:45Z</time>
      </trkpt>
      <trkpt lat="59.9689256" lon="17.7173582">
        <ele>20.325</ele>
        <time>2012-03-14T14:14:52Z</time>
      </trkpt>
      <trkpt lat="59.9688738" lon="17.7173379">
        <ele>20.8057</ele>
        <time>2012-03-14T14:14:55Z</time>
      </trkpt>
      <trkpt lat="59.9688556" lon="17.7173314">
        <ele>20.8057</ele>
        <time>2012-03-14T14:14:56Z</time>
      </trkpt>
      <trkpt lat="59.9688613" lon="17.7172556">
        <ele>20.8057</ele>
        <time>2012-03-14T14:15:00Z</time>
      </trkpt>
      <trkpt lat="59.9688771" lon="17.7172476">
        <ele>20.325</ele>
        <time>2012-03-14T14:15:01Z</time>
      </trkpt>
      <trkpt lat="59.9690162" lon="17.7172876">
        <ele>18.8831</ele>
        <time>2012-03-14T14:15:10Z</time>
      </trkpt>
      <trkpt lat="59.9691307" lon="17.7173281">
        <ele>18.8831</ele>
        <time>2012-03-14T14:15:17Z</time>
      </trkpt>
      <trkpt lat="59.9692766" lon="17.7173865">
        <ele>17.9218</ele>
        <time>2012-03-14T14:15:26Z</time>
      </trkpt>
      <trkpt lat="59.9694534" lon="17.7174647">
        <ele>19.8444</ele>
        <time>2012-03-14T14:15:37Z</time>
      </trkpt>
      <trkpt lat="59.9696438" lon="17.7175726">
        <ele>23.209</ele>
        <time>2012-03-14T14:15:49Z</time>
      </trkpt>
      <trkpt lat="59.9697849" lon="17.7176765">
        <ele>23.6896</ele>
        <time>2012-03-14T14:15:58Z</time>
      </trkpt>
      <trkpt lat="59.9699179" lon="17.7177859">
        <ele>23.6896</ele>
        <time>2012-03-14T14:16:07Z</time>
      </trkpt>
      <trkpt lat="59.9700606" lon="17.7179005">
        <ele>24.1703</ele>
        <time>2012-03-14T14:16:16Z</time>
      </trkpt>
      <trkpt lat="59.9702141" lon="17.7180164">
        <ele>22.7283</ele>
        <time>2012-03-14T14:16:26Z</time>
      </trkpt>
      <trkpt lat="59.9703407" lon="17.7181065">
        <ele>23.209</ele>
        <time>2012-03-14T14:16:34Z</time>
      </trkpt>
      <trkpt lat="59.9704359" lon="17.7181916">
        <ele>24.1703</ele>
        <time>2012-03-14T14:16:40Z</time>
      </trkpt>
      <trkpt lat="59.970556" lon="17.7183242">
        <ele>21.767</ele>
        <time>2012-03-14T14:16:50Z</time>
      </trkpt>
      <trkpt lat="59.9706816" lon="17.718432">
        <ele>19.8444</ele>
        <time>2012-03-14T14:16:59Z</time>
      </trkpt>
      <trkpt lat="59.9707954" lon="17.7185437">
        <ele>18.8831</ele>
        <time>2012-03-14T14:17:07Z</time>
      </trkpt>
      <trkpt lat="59.9709364" lon="17.718686">
        <ele>17.9218</ele>
        <time>2012-03-14T14:17:17Z</time>
      </trkpt>
      <trkpt lat="59.9711207" lon="17.7188742">
        <ele>19.3638</ele>
        <time>2012-03-14T14:17:30Z</time>
      </trkpt>
      <trkpt lat="59.9711979" lon="17.7189386">
        <ele>19.3638</ele>
        <time>2012-03-14T14:17:35Z</time>
      </trkpt>
      <trkpt lat="59.9713579" lon="17.7190837">
        <ele>18.4023</ele>
        <time>2012-03-14T14:17:46Z</time>
      </trkpt>
      <trkpt lat="59.9715202" lon="17.719213">
        <ele>16.4797</ele>
        <time>2012-03-14T14:17:57Z</time>
      </trkpt>
      <trkpt lat="59.9715946" lon="17.7192871">
        <ele>14.557</ele>
        <time>2012-03-14T14:18:03Z</time>
      </trkpt>
      <trkpt lat="59.9716559" lon="17.7193344">
        <ele>15.0377</ele>
        <time>2012-03-14T14:18:07Z</time>
      </trkpt>
      <trkpt lat="59.9717821" lon="17.7194299">
        <ele>15.0377</ele>
        <time>2012-03-14T14:18:15Z</time>
      </trkpt>
      <trkpt lat="59.9718667" lon="17.7195092">
        <ele>17.4412</ele>
        <time>2012-03-14T14:18:21Z</time>
      </trkpt>
      <trkpt lat="59.972006" lon="17.7196169">
        <ele>20.8057</ele>
        <time>2012-03-14T14:18:30Z</time>
      </trkpt>
      <trkpt lat="59.9721279" lon="17.719717">
        <ele>22.2476</ele>
        <time>2012-03-14T14:18:38Z</time>
      </trkpt>
      <trkpt lat="59.9722238" lon="17.7198163">
        <ele>22.2476</ele>
        <time>2012-03-14T14:18:45Z</time>
      </trkpt>
      <trkpt lat="59.9723027" lon="17.7198932">
        <ele>22.2476</ele>
        <time>2012-03-14T14:18:51Z</time>
      </trkpt>
      <trkpt lat="59.9724179" lon="17.7200147">
        <ele>21.767</ele>
        <time>2012-03-14T14:19:00Z</time>
      </trkpt>
      <trkpt lat="59.972506" lon="17.7201108">
        <ele>21.2864</ele>
        <time>2012-03-14T14:19:07Z</time>
      </trkpt>
      <trkpt lat="59.9726424" lon="17.7202454">
        <ele>20.8057</ele>
        <time>2012-03-14T14:19:17Z</time>
      </trkpt>
      <trkpt lat="59.9727981" lon="17.720392">
        <ele>21.2864</ele>
        <time>2012-03-14T14:19:28Z</time>
      </trkpt>
      <trkpt lat="59.9729386" lon="17.7205419">
        <ele>21.2864</ele>
        <time>2012-03-14T14:19:38Z</time>
      </trkpt>
      <trkpt lat="59.9730231" lon="17.7206366">
        <ele>20.8057</ele>
        <time>2012-03-14T14:19:44Z</time>
      </trkpt>
      <trkpt lat="59.9731259" lon="17.72078">
        <ele>19.3638</ele>
        <time>2012-03-14T14:19:52Z</time>
      </trkpt>
      <trkpt lat="59.973225" lon="17.7209423">
        <ele>16.9604</ele>
        <time>2012-03-14T14:20:00Z</time>
      </trkpt>
      <trkpt lat="59.9733237" lon="17.7211306">
        <ele>15.5184</ele>
        <time>2012-03-14T14:20:09Z</time>
      </trkpt>
      <trkpt lat="59.9734299" lon="17.7213141">
        <ele>16.9604</ele>
        <time>2012-03-14T14:20:18Z</time>
      </trkpt>
      <trkpt lat="59.9735095" lon="17.7214761">
        <ele>17.4412</ele>
        <time>2012-03-14T14:20:25Z</time>
      </trkpt>
      <trkpt lat="59.9736059" lon="17.7216871">
        <ele>17.9218</ele>
        <time>2012-03-14T14:20:34Z</time>
      </trkpt>
      <trkpt lat="59.9736819" lon="17.7218979">
        <ele>17.4412</ele>
        <time>2012-03-14T14:20:42Z</time>
      </trkpt>
      <trkpt lat="59.9737508" lon="17.7221083">
        <ele>17.9218</ele>
        <time>2012-03-14T14:20:50Z</time>
      </trkpt>
      <trkpt lat="59.9738304" lon="17.722372">
        <ele>19.3638</ele>
        <time>2012-03-14T14:21:00Z</time>
      </trkpt>
      <trkpt lat="59.9738958" lon="17.7225914">
        <ele>19.3638</ele>
        <time>2012-03-14T14:21:08Z</time>
      </trkpt>
      <trkpt lat="59.9739471" lon="17.7228166">
        <ele>18.8831</ele>
        <time>2012-03-14T14:21:16Z</time>
      </trkpt>
      <trkpt lat="59.9740156" lon="17.723093">
        <ele>18.4023</ele>
        <time>2012-03-14T14:21:26Z</time>
      </trkpt>
      <trkpt lat="59.9740559" lon="17.7233015">
        <ele>17.9218</ele>
        <time>2012-03-14T14:21:33Z</time>
      </trkpt>
      <trkpt lat="59.9740837" lon="17.7234882">
        <ele>16.9604</ele>
        <time>2012-03-14T14:21:39Z</time>
      </trkpt>
      <trkpt lat="59.9740925" lon="17.7235471">
        <ele>16.4797</ele>
        <time>2012-03-14T14:21:41Z</time>
      </trkpt>
      <trkpt lat="59.9741299" lon="17.7237104">
        <ele>18.8831</ele>
        <time>2012-03-14T14:21:47Z</time>
      </trkpt>
      <trkpt lat="59.9741459" lon="17.7238461">
        <ele>18.8831</ele>
        <time>2012-03-14T14:21:51Z</time>
      </trkpt>
      <trkpt lat="59.9741524" lon="17.723921">
        <ele>18.8831</ele>
        <time>2012-03-14T14:21:53Z</time>
      </trkpt>
      <trkpt lat="59.9741723" lon="17.7241484">
        <ele>18.4023</ele>
        <time>2012-03-14T14:22:00Z</time>
      </trkpt>
      <trkpt lat="59.9742046" lon="17.724388">
        <ele>18.4023</ele>
        <time>2012-03-14T14:22:08Z</time>
      </trkpt>
      <trkpt lat="59.9742398" lon="17.7246003">
        <ele>17.9218</ele>
        <time>2012-03-14T14:22:15Z</time>
      </trkpt>
      <trkpt lat="59.974286" lon="17.7248692">
        <ele>18.8831</ele>
        <time>2012-03-14T14:22:24Z</time>
      </trkpt>
      <trkpt lat="59.9743222" lon="17.7250887">
        <ele>18.4023</ele>
        <time>2012-03-14T14:22:31Z</time>
      </trkpt>
      <trkpt lat="59.9743598" lon="17.725268">
        <ele>20.8057</ele>
        <time>2012-03-14T14:22:38Z</time>
      </trkpt>
      <trkpt lat="59.9743701" lon="17.7253917">
        <ele>21.2864</ele>
        <time>2012-03-14T14:22:42Z</time>
      </trkpt>
      <trkpt lat="59.9743765" lon="17.7255784">
        <ele>21.767</ele>
        <time>2012-03-14T14:22:48Z</time>
      </trkpt>
      <trkpt lat="59.9743867" lon="17.7258263">
        <ele>19.3638</ele>
        <time>2012-03-14T14:22:56Z</time>
      </trkpt>
      <trkpt lat="59.9743946" lon="17.7260119">
        <ele>17.9218</ele>
        <time>2012-03-14T14:23:02Z</time>
      </trkpt>
      <trkpt lat="59.9744056" lon="17.7261">
        <ele>16.9604</ele>
        <time>2012-03-14T14:23:05Z</time>
      </trkpt>
      <trkpt lat="59.9744178" lon="17.7262771">
        <ele>15.5184</ele>
        <time>2012-03-14T14:23:11Z</time>
      </trkpt>
      <trkpt lat="59.9744101" lon="17.7264481">
        <ele>13.1151</ele>
        <time>2012-03-14T14:23:16Z</time>
      </trkpt>
      <trkpt lat="59.9744093" lon="17.7266551">
        <ele>11.6732</ele>
        <time>2012-03-14T14:23:22Z</time>
      </trkpt>
      <trkpt lat="59.9744044" lon="17.7268282">
        <ele>10.2312</ele>
        <time>2012-03-14T14:23:27Z</time>
      </trkpt>
      <trkpt lat="59.9744018" lon="17.7270577">
        <ele>8.78918</ele>
        <time>2012-03-14T14:23:35Z</time>
      </trkpt>
      <trkpt lat="59.974395" lon="17.7272755">
        <ele>6.38586</ele>
        <time>2012-03-14T14:23:41Z</time>
      </trkpt>
      <trkpt lat="59.9743974" lon="17.7275095">
        <ele>4.46326</ele>
        <time>2012-03-14T14:23:48Z</time>
      </trkpt>
      <trkpt lat="59.9743947" lon="17.7277742">
        <ele>1.57935</ele>
        <time>2012-03-14T14:23:56Z</time>
      </trkpt>
      <trkpt lat="59.9743917" lon="17.7279446">
        <ele>0</ele>
        <time>2012-03-14T14:24:02Z</time>
      </trkpt>
      <trkpt lat="59.9743806" lon="17.7281855">
        <ele>0</ele>
        <time>2012-03-14T14:24:09Z</time>
      </trkpt>
      <trkpt lat="59.9743999" lon="17.7283171">
        <ele>0</ele>
        <time>2012-03-14T14:24:15Z</time>
      </trkpt>
      <trkpt lat="59.9744098" lon="17.7285382">
        <ele>2.06006</ele>
        <time>2012-03-14T14:24:23Z</time>
      </trkpt>
      <trkpt lat="59.9744312" lon="17.7287398">
        <ele>6.38586</ele>
        <time>2012-03-14T14:24:30Z</time>
      </trkpt>
      <trkpt lat="59.9744434" lon="17.728988">
        <ele>8.78918</ele>
        <time>2012-03-14T14:24:38Z</time>
      </trkpt>
      <trkpt lat="59.9744642" lon="17.7292313">
        <ele>12.1538</ele>
        <time>2012-03-14T14:24:46Z</time>
      </trkpt>
      <trkpt lat="59.9744701" lon="17.7293686">
        <ele>13.5958</ele>
        <time>2012-03-14T14:24:51Z</time>
      </trkpt>
      <trkpt lat="59.9744713" lon="17.7296546">
        <ele>16.4797</ele>
        <time>2012-03-14T14:25:00Z</time>
      </trkpt>
      <trkpt lat="59.9744652" lon="17.7299037">
        <ele>18.8831</ele>
        <time>2012-03-14T14:25:08Z</time>
      </trkpt>
      <trkpt lat="59.9744542" lon="17.7301398">
        <ele>20.8057</ele>
        <time>2012-03-14T14:25:16Z</time>
      </trkpt>
      <trkpt lat="59.9744341" lon="17.7304623">
        <ele>21.767</ele>
        <time>2012-03-14T14:25:26Z</time>
      </trkpt>
      <trkpt lat="59.9744206" lon="17.7307961">
        <ele>24.1703</ele>
        <time>2012-03-14T14:25:36Z</time>
      </trkpt>
      <trkpt lat="59.9744053" lon="17.731106">
        <ele>25.6123</ele>
        <time>2012-03-14T14:25:46Z</time>
      </trkpt>
      <trkpt lat="59.9743993" lon="17.7314586">
        <ele>27.0543</ele>
        <time>2012-03-14T14:25:57Z</time>
      </trkpt>
      <trkpt lat="59.974393" lon="17.7317415">
        <ele>26.0929</ele>
        <time>2012-03-14T14:26:06Z</time>
      </trkpt>
      <trkpt lat="59.9743965" lon="17.7320109">
        <ele>25.6123</ele>
        <time>2012-03-14T14:26:15Z</time>
      </trkpt>
      <trkpt lat="59.9744045" lon="17.7323136">
        <ele>25.1317</ele>
        <time>2012-03-14T14:26:25Z</time>
      </trkpt>
      <trkpt lat="59.9744043" lon="17.7325886">
        <ele>24.1703</ele>
        <time>2012-03-14T14:26:34Z</time>
      </trkpt>
      <trkpt lat="59.9744051" lon="17.7328322">
        <ele>23.6896</ele>
        <time>2012-03-14T14:26:42Z</time>
      </trkpt>
      <trkpt lat="59.9743982" lon="17.7332266">
        <ele>23.6896</ele>
        <time>2012-03-14T14:26:55Z</time>
      </trkpt>
      <trkpt lat="59.9743922" lon="17.7332895">
        <ele>24.1703</ele>
        <time>2012-03-14T14:26:57Z</time>
      </trkpt>
      <trkpt lat="59.9743848" lon="17.7335211">
        <ele>24.1703</ele>
        <time>2012-03-14T14:27:05Z</time>
      </trkpt>
      <trkpt lat="59.9743683" lon="17.7338311">
        <ele>24.651</ele>
        <time>2012-03-14T14:27:15Z</time>
      </trkpt>
      <trkpt lat="59.9743615" lon="17.7341223">
        <ele>24.651</ele>
        <time>2012-03-14T14:27:25Z</time>
      </trkpt>
      <trkpt lat="59.9743552" lon="17.7344564">
        <ele>25.6123</ele>
        <time>2012-03-14T14:27:36Z</time>
      </trkpt>
      <trkpt lat="59.9743577" lon="17.7347938">
        <ele>24.651</ele>
        <time>2012-03-14T14:27:46Z</time>
      </trkpt>
      <trkpt lat="59.9743625" lon="17.7348931">
        <ele>23.6896</ele>
        <time>2012-03-14T14:27:50Z</time>
      </trkpt>
      <trkpt lat="59.974375" lon="17.7351">
        <ele>23.209</ele>
        <time>2012-03-14T14:27:57Z</time>
      </trkpt>
      <trkpt lat="59.9743822" lon="17.7353681">
        <ele>21.2864</ele>
        <time>2012-03-14T14:28:05Z</time>
      </trkpt>
      <trkpt lat="59.9743822" lon="17.735605">
        <ele>16.9604</ele>
        <time>2012-03-14T14:28:12Z</time>
      </trkpt>
      <trkpt lat="59.9744036" lon="17.7358463">
        <ele>11.6732</ele>
        <time>2012-03-14T14:28:20Z</time>
      </trkpt>
      <trkpt lat="59.9744297" lon="17.736041">
        <ele>9.75061</ele>
        <time>2012-03-14T14:28:27Z</time>
      </trkpt>
      <trkpt lat="59.974477" lon="17.7362215">
        <ele>9.75061</ele>
        <time>2012-03-14T14:28:34Z</time>
      </trkpt>
      <trkpt lat="59.9745155" lon="17.7363746">
        <ele>10.7118</ele>
        <time>2012-03-14T14:28:40Z</time>
      </trkpt>
      <trkpt lat="59.9745837" lon="17.7365974">
        <ele>14.557</ele>
        <time>2012-03-14T14:28:49Z</time>
      </trkpt>
      <trkpt lat="59.9746537" lon="17.7367793">
        <ele>16.9604</ele>
        <time>2012-03-14T14:28:57Z</time>
      </trkpt>
      <trkpt lat="59.97472" lon="17.7369409">
        <ele>18.4023</ele>
        <time>2012-03-14T14:29:04Z</time>
      </trkpt>
      <trkpt lat="59.9747892" lon="17.7371124">
        <ele>19.3638</ele>
        <time>2012-03-14T14:29:11Z</time>
      </trkpt>
      <trkpt lat="59.9748773" lon="17.7373046">
        <ele>21.2864</ele>
        <time>2012-03-14T14:29:19Z</time>
      </trkpt>
      <trkpt lat="59.9749513" lon="17.7374697">
        <ele>20.8057</ele>
        <time>2012-03-14T14:29:26Z</time>
      </trkpt>
      <trkpt lat="59.9750477" lon="17.7376442">
        <ele>21.767</ele>
        <time>2012-03-14T14:29:34Z</time>
      </trkpt>
      <trkpt lat="59.9751182" lon="17.7377671">
        <ele>22.2476</ele>
        <time>2012-03-14T14:29:40Z</time>
      </trkpt>
      <trkpt lat="59.9751484" lon="17.7377964">
        <ele>21.767</ele>
        <time>2012-03-14T14:29:42Z</time>
      </trkpt>
      <trkpt lat="59.9752504" lon="17.7379565">
        <ele>22.2476</ele>
        <time>2012-03-14T14:29:50Z</time>
      </trkpt>
      <trkpt lat="59.9753341" lon="17.7380887">
        <ele>23.209</ele>
        <time>2012-03-14T14:29:57Z</time>
      </trkpt>
      <trkpt lat="59.9753954" lon="17.7381827">
        <ele>23.6896</ele>
        <time>2012-03-14T14:30:02Z</time>
      </trkpt>
      <trkpt lat="59.9754725" lon="17.738313">
        <ele>21.2864</ele>
        <time>2012-03-14T14:30:09Z</time>
      </trkpt>
      <trkpt lat="59.9755225" lon="17.7383834">
        <ele>21.2864</ele>
        <time>2012-03-14T14:30:13Z</time>
      </trkpt>
      <trkpt lat="59.9755372" lon="17.7383979">
        <ele>20.8057</ele>
        <time>2012-03-14T14:30:14Z</time>
      </trkpt>
      <trkpt lat="59.9756032" lon="17.7385668">
        <ele>20.325</ele>
        <time>2012-03-14T14:30:21Z</time>
      </trkpt>
      <trkpt lat="59.975669" lon="17.7386555">
        <ele>20.8057</ele>
        <time>2012-03-14T14:30:26Z</time>
      </trkpt>
      <trkpt lat="59.9757285" lon="17.7387471">
        <ele>18.8831</ele>
        <time>2012-03-14T14:30:31Z</time>
      </trkpt>
      <trkpt lat="59.9758151" lon="17.7389314">
        <ele>18.4023</ele>
        <time>2012-03-14T14:30:40Z</time>
      </trkpt>
      <trkpt lat="59.9758786" lon="17.7390584">
        <ele>18.8831</ele>
        <time>2012-03-14T14:30:46Z</time>
      </trkpt>
      <trkpt lat="59.9759661" lon="17.739192">
        <ele>20.325</ele>
        <time>2012-03-14T14:30:53Z</time>
      </trkpt>
      <trkpt lat="59.9760267" lon="17.7392868">
        <ele>19.8444</ele>
        <time>2012-03-14T14:30:58Z</time>
      </trkpt>
      <trkpt lat="59.9760377" lon="17.739304">
        <ele>19.8444</ele>
        <time>2012-03-14T14:30:59Z</time>
      </trkpt>
      <trkpt lat="59.9760958" lon="17.7394127">
        <ele>21.767</ele>
        <time>2012-03-14T14:31:05Z</time>
      </trkpt>
      <trkpt lat="59.9761698" lon="17.7395672">
        <ele>24.1703</ele>
        <time>2012-03-14T14:31:12Z</time>
      </trkpt>
      <trkpt lat="59.9761871" lon="17.7396251">
        <ele>25.1317</ele>
        <time>2012-03-14T14:31:14Z</time>
      </trkpt>
      <trkpt lat="59.9762802" lon="17.7397074">
        <ele>27.5349</ele>
        <time>2012-03-14T14:31:20Z</time>
      </trkpt>
      <trkpt lat="59.976305" lon="17.7397317">
        <ele>27.5349</ele>
        <time>2012-03-14T14:31:22Z</time>
      </trkpt>
      <trkpt lat="59.9763842" lon="17.7397343">
        <ele>26.5736</ele>
        <time>2012-03-14T14:31:28Z</time>
      </trkpt>
      <trkpt lat="59.9764424" lon="17.7396333">
        <ele>26.5736</ele>
        <time>2012-03-14T14:31:35Z</time>
      </trkpt>
      <trkpt lat="59.9765475" lon="17.7394906">
        <ele>27.5349</ele>
        <time>2012-03-14T14:31:45Z</time>
      </trkpt>
      <trkpt lat="59.9766206" lon="17.7394155">
        <ele>27.5349</ele>
        <time>2012-03-14T14:31:51Z</time>
      </trkpt>
      <trkpt lat="59.9767225" lon="17.7393387">
        <ele>27.0543</ele>
        <time>2012-03-14T14:31:59Z</time>
      </trkpt>
      <trkpt lat="59.9767934" lon="17.7393028">
        <ele>28.4962</ele>
        <time>2012-03-14T14:32:04Z</time>
      </trkpt>
      <trkpt lat="59.9768861" lon="17.7392567">
        <ele>28.0155</ele>
        <time>2012-03-14T14:32:11Z</time>
      </trkpt>
      <trkpt lat="59.9769719" lon="17.7392231">
        <ele>27.5349</ele>
        <time>2012-03-14T14:32:17Z</time>
      </trkpt>
      <trkpt lat="59.9770498" lon="17.7391693">
        <ele>26.0929</ele>
        <time>2012-03-14T14:32:22Z</time>
      </trkpt>
      <trkpt lat="59.9771789" lon="17.7391134">
        <ele>27.0543</ele>
        <time>2012-03-14T14:32:31Z</time>
      </trkpt>
      <trkpt lat="59.9772603" lon="17.7390847">
        <ele>26.5736</ele>
        <time>2012-03-14T14:32:37Z</time>
      </trkpt>
      <trkpt lat="59.9773518" lon="17.7390443">
        <ele>23.6896</ele>
        <time>2012-03-14T14:32:44Z</time>
      </trkpt>
      <trkpt lat="59.9774487" lon="17.7389959">
        <ele>21.767</ele>
        <time>2012-03-14T14:32:51Z</time>
      </trkpt>
      <trkpt lat="59.9775307" lon="17.7389617">
        <ele>22.2476</ele>
        <time>2012-03-14T14:32:57Z</time>
      </trkpt>
      <trkpt lat="59.9776166" lon="17.738946">
        <ele>22.2476</ele>
        <time>2012-03-14T14:33:03Z</time>
      </trkpt>
      <trkpt lat="59.9776926" lon="17.738967">
        <ele>23.209</ele>
        <time>2012-03-14T14:33:08Z</time>
      </trkpt>
      <trkpt lat="59.9777812" lon="17.7389876">
        <ele>23.209</ele>
        <time>2012-03-14T14:33:14Z</time>
      </trkpt>
      <trkpt lat="59.9778755" lon="17.7390363">
        <ele>25.6123</ele>
        <time>2012-03-14T14:33:19Z</time>
      </trkpt>
      <trkpt lat="59.9779674" lon="17.7390705">
        <ele>27.0543</ele>
        <time>2012-03-14T14:33:25Z</time>
      </trkpt>
      <trkpt lat="59.9780451" lon="17.7390704">
        <ele>28.0155</ele>
        <time>2012-03-14T14:33:29Z</time>
      </trkpt>
      <trkpt lat="59.9781149" lon="17.7391237">
        <ele>28.0155</ele>
        <time>2012-03-14T14:33:35Z</time>
      </trkpt>
      <trkpt lat="59.9781744" lon="17.7391273">
        <ele>26.0929</ele>
        <time>2012-03-14T14:33:39Z</time>
      </trkpt>
      <trkpt lat="59.9782301" lon="17.7391573">
        <ele>22.7283</ele>
        <time>2012-03-14T14:33:43Z</time>
      </trkpt>
      <trkpt lat="59.9783298" lon="17.739217">
        <ele>21.2864</ele>
        <time>2012-03-14T14:33:50Z</time>
      </trkpt>
      <trkpt lat="59.9784175" lon="17.7392443">
        <ele>21.767</ele>
        <time>2012-03-14T14:33:56Z</time>
      </trkpt>
      <trkpt lat="59.9784777" lon="17.7392466">
        <ele>19.8444</ele>
        <time>2012-03-14T14:34:01Z</time>
      </trkpt>
      <trkpt lat="59.9784921" lon="17.7392487">
        <ele>19.8444</ele>
        <time>2012-03-14T14:34:02Z</time>
      </trkpt>
      <trkpt lat="59.9785852" lon="17.7392512">
        <ele>20.325</ele>
        <time>2012-03-14T14:34:09Z</time>
      </trkpt>
      <trkpt lat="59.9786688" lon="17.7392806">
        <ele>21.2864</ele>
        <time>2012-03-14T14:34:15Z</time>
      </trkpt>
      <trkpt lat="59.9787836" lon="17.7393294">
        <ele>18.8831</ele>
        <time>2012-03-14T14:34:23Z</time>
      </trkpt>
      <trkpt lat="59.9788807" lon="17.7393632">
        <ele>23.209</ele>
        <time>2012-03-14T14:34:29Z</time>
      </trkpt>
    </trkseg>
  </trk>
</gpx>